<?xml version='1.0' encoding='UTF-8'?><gpx version="1.1" creator="JPX - https://github.com/jenetics/jpx" xmlns="http://www.topografix.com/GPX/1/1"><trk><trkseg><trkpt lat="44.8757591" lon="7.2034779"><ele>1462.0</ele><time>2026-04-07T14:05:45.713Z</time></trkpt><trkpt lat="44.875688" lon="7.2034202"><ele>1462.0</ele><time>2026-04-07T14:05:48.712Z</time></trkpt><trkpt lat="44.8756884" lon="7.2032939"><ele>1462.0</ele><time>2026-04-07T14:05:50.713Z</time></trkpt><trkpt lat="44.8756808" lon="7.2031452"><ele>1462.0</ele><time>2026-04-07T14:05:52.713Z</time></trkpt><trkpt lat="44.8756578" lon="7.2030084"><ele>1462.0</ele><time>2026-04-07T14:05:54.713Z</time></trkpt><trkpt lat="44.8756313" lon="7.202881"><ele>1462.3333333333333</ele><time>2026-04-07T14:05:56.713Z</time></trkpt><trkpt lat="44.87562" lon="7.2027364"><ele>1462.6666666666665</ele><time>2026-04-07T14:05:58.712Z</time></trkpt><trkpt lat="44.8756384" lon="7.2025775"><ele>1463.0</ele><time>2026-04-07T14:06:00.713Z</time></trkpt><trkpt lat="44.8756505" lon="7.20249"><ele>1463.3333333333333</ele><time>2026-04-07T14:06:01.713Z</time></trkpt><trkpt lat="44.8756653" lon="7.2023976"><ele>1463.6666666666667</ele><time>2026-04-07T14:06:02.712Z</time></trkpt><trkpt lat="44.8756892" lon="7.2022957"><ele>1464.0</ele><time>2026-04-07T14:06:03.713Z</time></trkpt><trkpt lat="44.8757082" lon="7.2021987"><ele>1464.0</ele><time>2026-04-07T14:06:04.713Z</time></trkpt><trkpt lat="44.8757215" lon="7.2020997"><ele>1464.0</ele><time>2026-04-07T14:06:05.713Z</time></trkpt><trkpt lat="44.8757293" lon="7.2019983"><ele>1464.0</ele><time>2026-04-07T14:06:06.713Z</time></trkpt><trkpt lat="44.8757342" lon="7.2018925"><ele>1464.0</ele><time>2026-04-07T14:06:07.712Z</time></trkpt><trkpt lat="44.8757321" lon="7.2017783"><ele>1464.0</ele><time>2026-04-07T14:06:08.713Z</time></trkpt><trkpt lat="44.8757229" lon="7.2016571"><ele>1464.0</ele><time>2026-04-07T14:06:09.713Z</time></trkpt><trkpt lat="44.8757013" lon="7.2015316"><ele>1464.6</ele><time>2026-04-07T14:06:10.713Z</time></trkpt><trkpt lat="44.8756818" lon="7.2014056"><ele>1465.2</ele><time>2026-04-07T14:06:11.713Z</time></trkpt><trkpt lat="44.8756659" lon="7.2012769"><ele>1465.8</ele><time>2026-04-07T14:06:12.713Z</time></trkpt><trkpt lat="44.8756448" lon="7.2011555"><ele>1466.3999999999999</ele><time>2026-04-07T14:06:13.713Z</time></trkpt><trkpt lat="44.8756202" lon="7.2010262"><ele>1467.0</ele><time>2026-04-07T14:06:14.713Z</time></trkpt><trkpt lat="44.8755987" lon="7.2008931"><ele>1467.0</ele><time>2026-04-07T14:06:15.713Z</time></trkpt><trkpt lat="44.875581" lon="7.2007585"><ele>1467.0</ele><time>2026-04-07T14:06:16.713Z</time></trkpt><trkpt lat="44.8755643" lon="7.2006136"><ele>1467.0</ele><time>2026-04-07T14:06:17.713Z</time></trkpt><trkpt lat="44.8755441" lon="7.2004665"><ele>1467.0</ele><time>2026-04-07T14:06:18.713Z</time></trkpt><trkpt lat="44.8755241" lon="7.20033"><ele>1467.0</ele><time>2026-04-07T14:06:19.713Z</time></trkpt><trkpt lat="44.8755053" lon="7.2001995"><ele>1467.0</ele><time>2026-04-07T14:06:20.713Z</time></trkpt><trkpt lat="44.8754896" lon="7.2000787"><ele>1467.0</ele><time>2026-04-07T14:06:21.713Z</time></trkpt><trkpt lat="44.8754702" lon="7.1999572"><ele>1467.0</ele><time>2026-04-07T14:06:22.713Z</time></trkpt><trkpt lat="44.8754595" lon="7.1998353"><ele>1467.0</ele><time>2026-04-07T14:06:23.713Z</time></trkpt><trkpt lat="44.8754446" lon="7.1997013"><ele>1467.0</ele><time>2026-04-07T14:06:24.713Z</time></trkpt><trkpt lat="44.8754266" lon="7.1995575"><ele>1467.3999999999999</ele><time>2026-04-07T14:06:25.713Z</time></trkpt><trkpt lat="44.8754014" lon="7.1994152"><ele>1467.8</ele><time>2026-04-07T14:06:26.713Z</time></trkpt><trkpt lat="44.8753807" lon="7.1992764"><ele>1468.2</ele><time>2026-04-07T14:06:27.713Z</time></trkpt><trkpt lat="44.8753594" lon="7.1991329"><ele>1468.6</ele><time>2026-04-07T14:06:28.713Z</time></trkpt><trkpt lat="44.8753499" lon="7.1989846"><ele>1469.0</ele><time>2026-04-07T14:06:29.713Z</time></trkpt><trkpt lat="44.8753521" lon="7.1988335"><ele>1469.0</ele><time>2026-04-07T14:06:30.712Z</time></trkpt><trkpt lat="44.8753641" lon="7.1986848"><ele>1469.0</ele><time>2026-04-07T14:06:31.713Z</time></trkpt><trkpt lat="44.8753811" lon="7.1985322"><ele>1469.0</ele><time>2026-04-07T14:06:32.713Z</time></trkpt><trkpt lat="44.8753893" lon="7.1983818"><ele>1469.0</ele><time>2026-04-07T14:06:33.713Z</time></trkpt><trkpt lat="44.8753915" lon="7.1982319"><ele>1469.0</ele><time>2026-04-07T14:06:34.712Z</time></trkpt><trkpt lat="44.8753864" lon="7.1980817"><ele>1469.0</ele><time>2026-04-07T14:06:35.713Z</time></trkpt><trkpt lat="44.8753771" lon="7.1979304"><ele>1469.0</ele><time>2026-04-07T14:06:36.713Z</time></trkpt><trkpt lat="44.8753681" lon="7.1977751"><ele>1469.0</ele><time>2026-04-07T14:06:37.713Z</time></trkpt><trkpt lat="44.8753582" lon="7.1976239"><ele>1469.0</ele><time>2026-04-07T14:06:38.713Z</time></trkpt><trkpt lat="44.8753415" lon="7.1974791"><ele>1469.0</ele><time>2026-04-07T14:06:39.713Z</time></trkpt><trkpt lat="44.8753309" lon="7.1973393"><ele>1472.2</ele><time>2026-04-07T14:06:40.713Z</time></trkpt><trkpt lat="44.8753276" lon="7.1972025"><ele>1475.4</ele><time>2026-04-07T14:06:41.713Z</time></trkpt><trkpt lat="44.8753235" lon="7.1970665"><ele>1478.6</ele><time>2026-04-07T14:06:42.713Z</time></trkpt><trkpt lat="44.875308" lon="7.1969269"><ele>1481.8</ele><time>2026-04-07T14:06:43.713Z</time></trkpt><trkpt lat="44.8752884" lon="7.1967959"><ele>1485.0</ele><time>2026-04-07T14:06:44.713Z</time></trkpt><trkpt lat="44.8752593" lon="7.1966663"><ele>1485.0</ele><time>2026-04-07T14:06:45.713Z</time></trkpt><trkpt lat="44.8752204" lon="7.1965378"><ele>1485.0</ele><time>2026-04-07T14:06:46.713Z</time></trkpt><trkpt lat="44.8751794" lon="7.1964129"><ele>1485.0</ele><time>2026-04-07T14:06:47.713Z</time></trkpt><trkpt lat="44.8751383" lon="7.1962973"><ele>1485.0</ele><time>2026-04-07T14:06:48.713Z</time></trkpt><trkpt lat="44.8750991" lon="7.1961844"><ele>1485.0</ele><time>2026-04-07T14:06:49.713Z</time></trkpt><trkpt lat="44.8750609" lon="7.1960718"><ele>1481.5</ele><time>2026-04-07T14:06:50.713Z</time></trkpt><trkpt lat="44.8750248" lon="7.195954"><ele>1478.0</ele><time>2026-04-07T14:06:51.713Z</time></trkpt><trkpt lat="44.8749965" lon="7.1958425"><ele>1474.5</ele><time>2026-04-07T14:06:52.713Z</time></trkpt><trkpt lat="44.8749728" lon="7.1957386"><ele>1471.0</ele><time>2026-04-07T14:06:53.713Z</time></trkpt><trkpt lat="44.8749526" lon="7.1956468"><ele>1467.5</ele><time>2026-04-07T14:06:54.713Z</time></trkpt><trkpt lat="44.874903" lon="7.195516"><ele>1464.0</ele><time>2026-04-07T14:06:56.713Z</time></trkpt><trkpt lat="44.8748296" lon="7.1954951"><ele>1464.0</ele><time>2026-04-07T14:06:58.713Z</time></trkpt><trkpt lat="44.8747808" lon="7.1956203"><ele>1464.0</ele><time>2026-04-07T14:07:00.713Z</time></trkpt><trkpt lat="44.8747804" lon="7.1957214"><ele>1464.0</ele><time>2026-04-07T14:07:01.713Z</time></trkpt><trkpt lat="44.8747914" lon="7.1958534"><ele>1464.0</ele><time>2026-04-07T14:07:02.713Z</time></trkpt><trkpt lat="44.8748032" lon="7.196006"><ele>1464.0</ele><time>2026-04-07T14:07:03.713Z</time></trkpt><trkpt lat="44.8748154" lon="7.1961612"><ele>1461.0</ele><time>2026-04-07T14:07:04.713Z</time></trkpt><trkpt lat="44.8748162" lon="7.1963082"><ele>1458.0</ele><time>2026-04-07T14:07:05.713Z</time></trkpt><trkpt lat="44.87482" lon="7.1964502"><ele>1455.0</ele><time>2026-04-07T14:07:06.713Z</time></trkpt><trkpt lat="44.874815" lon="7.1965863"><ele>1452.0</ele><time>2026-04-07T14:07:07.713Z</time></trkpt><trkpt lat="44.8748159" lon="7.1967189"><ele>1449.0</ele><time>2026-04-07T14:07:08.712Z</time></trkpt><trkpt lat="44.8748182" lon="7.1968424"><ele>1448.3333333333333</ele><time>2026-04-07T14:07:09.713Z</time></trkpt><trkpt lat="44.8748142" lon="7.196957"><ele>1447.6666666666667</ele><time>2026-04-07T14:07:10.713Z</time></trkpt><trkpt lat="44.874795" lon="7.1970703"><ele>1447.0</ele><time>2026-04-07T14:07:11.712Z</time></trkpt><trkpt lat="44.87476" lon="7.1971773"><ele>1446.3333333333335</ele><time>2026-04-07T14:07:12.713Z</time></trkpt><trkpt lat="44.874724" lon="7.1972823"><ele>1445.6666666666667</ele><time>2026-04-07T14:07:13.713Z</time></trkpt><trkpt lat="44.8747016" lon="7.1973943"><ele>1445.0</ele><time>2026-04-07T14:07:14.713Z</time></trkpt><trkpt lat="44.8746865" lon="7.197504"><ele>1443.1666666666667</ele><time>2026-04-07T14:07:15.713Z</time></trkpt><trkpt lat="44.8746866" lon="7.1976195"><ele>1441.3333333333335</ele><time>2026-04-07T14:07:16.713Z</time></trkpt><trkpt lat="44.8747045" lon="7.1977322"><ele>1439.5</ele><time>2026-04-07T14:07:17.713Z</time></trkpt><trkpt lat="44.874727" lon="7.1978462"><ele>1437.6666666666667</ele><time>2026-04-07T14:07:18.712Z</time></trkpt><trkpt lat="44.8747514" lon="7.1979587"><ele>1435.8333333333333</ele><time>2026-04-07T14:07:19.712Z</time></trkpt><trkpt lat="44.874762" lon="7.1980757"><ele>1434.0</ele><time>2026-04-07T14:07:20.713Z</time></trkpt><trkpt lat="44.8747536" lon="7.1981956"><ele>1433.2</ele><time>2026-04-07T14:07:21.713Z</time></trkpt><trkpt lat="44.8747356" lon="7.1983291"><ele>1432.4</ele><time>2026-04-07T14:07:22.713Z</time></trkpt><trkpt lat="44.8747195" lon="7.1984646"><ele>1431.6</ele><time>2026-04-07T14:07:23.713Z</time></trkpt><trkpt lat="44.8746998" lon="7.1985927"><ele>1430.8</ele><time>2026-04-07T14:07:24.713Z</time></trkpt><trkpt lat="44.8746844" lon="7.1987194"><ele>1430.0</ele><time>2026-04-07T14:07:25.713Z</time></trkpt><trkpt lat="44.8746754" lon="7.1988369"><ele>1430.0</ele><time>2026-04-07T14:07:26.713Z</time></trkpt><trkpt lat="44.8746712" lon="7.1989506"><ele>1430.0</ele><time>2026-04-07T14:07:27.713Z</time></trkpt><trkpt lat="44.8746666" lon="7.1990712"><ele>1430.0</ele><time>2026-04-07T14:07:28.713Z</time></trkpt><trkpt lat="44.8746704" lon="7.1991888"><ele>1430.0</ele><time>2026-04-07T14:07:29.713Z</time></trkpt><trkpt lat="44.874668" lon="7.1993069"><ele>1430.0</ele><time>2026-04-07T14:07:30.713Z</time></trkpt><trkpt lat="44.8746622" lon="7.199429"><ele>1430.0</ele><time>2026-04-07T14:07:31.713Z</time></trkpt><trkpt lat="44.8746452" lon="7.1995549"><ele>1430.2</ele><time>2026-04-07T14:07:32.713Z</time></trkpt><trkpt lat="44.8746207" lon="7.1996742"><ele>1430.4</ele><time>2026-04-07T14:07:33.713Z</time></trkpt><trkpt lat="44.8745873" lon="7.1997875"><ele>1430.6</ele><time>2026-04-07T14:07:34.713Z</time></trkpt><trkpt lat="44.874558" lon="7.1999045"><ele>1430.8</ele><time>2026-04-07T14:07:35.713Z</time></trkpt><trkpt lat="44.8745269" lon="7.200031"><ele>1431.0</ele><time>2026-04-07T14:07:36.713Z</time></trkpt><trkpt lat="44.8745018" lon="7.2001657"><ele>1431.6</ele><time>2026-04-07T14:07:37.713Z</time></trkpt><trkpt lat="44.874482" lon="7.2003085"><ele>1432.1999999999998</ele><time>2026-04-07T14:07:38.712Z</time></trkpt><trkpt lat="44.8744651" lon="7.2004468"><ele>1432.8000000000002</ele><time>2026-04-07T14:07:39.713Z</time></trkpt><trkpt lat="44.8744564" lon="7.2005871"><ele>1433.4</ele><time>2026-04-07T14:07:40.713Z</time></trkpt><trkpt lat="44.8744381" lon="7.2007254"><ele>1434.0</ele><time>2026-04-07T14:07:41.713Z</time></trkpt><trkpt lat="44.8744097" lon="7.2008666"><ele>1434.5</ele><time>2026-04-07T14:07:42.713Z</time></trkpt><trkpt lat="44.8743695" lon="7.2010174"><ele>1435.0</ele><time>2026-04-07T14:07:43.713Z</time></trkpt><trkpt lat="44.8743167" lon="7.2011789"><ele>1435.5</ele><time>2026-04-07T14:07:44.713Z</time></trkpt><trkpt lat="44.8742662" lon="7.2013423"><ele>1436.0</ele><time>2026-04-07T14:07:45.713Z</time></trkpt><trkpt lat="44.8742244" lon="7.2015095"><ele>1426.75</ele><time>2026-04-07T14:07:46.713Z</time></trkpt><trkpt lat="44.8741917" lon="7.2016718"><ele>1417.5</ele><time>2026-04-07T14:07:47.713Z</time></trkpt><trkpt lat="44.8741619" lon="7.2018319"><ele>1408.25</ele><time>2026-04-07T14:07:48.713Z</time></trkpt><trkpt lat="44.8741344" lon="7.2019825"><ele>1399.0</ele><time>2026-04-07T14:07:49.713Z</time></trkpt><trkpt lat="44.874108" lon="7.2021256"><ele>1399.0</ele><time>2026-04-07T14:07:50.713Z</time></trkpt><trkpt lat="44.8740764" lon="7.2022675"><ele>1399.0</ele><time>2026-04-07T14:07:51.713Z</time></trkpt><trkpt lat="44.874025" lon="7.2024069"><ele>1399.0</ele><time>2026-04-07T14:07:52.713Z</time></trkpt><trkpt lat="44.8739754" lon="7.2025473"><ele>1399.0</ele><time>2026-04-07T14:07:53.713Z</time></trkpt><trkpt lat="44.8739298" lon="7.2026909"><ele>1399.0</ele><time>2026-04-07T14:07:54.713Z</time></trkpt><trkpt lat="44.8738902" lon="7.2028338"><ele>1399.4</ele><time>2026-04-07T14:07:55.712Z</time></trkpt><trkpt lat="44.873853" lon="7.2029627"><ele>1399.8000000000002</ele><time>2026-04-07T14:07:56.713Z</time></trkpt><trkpt lat="44.8738135" lon="7.2030887"><ele>1400.1999999999998</ele><time>2026-04-07T14:07:57.713Z</time></trkpt><trkpt lat="44.8737729" lon="7.2032211"><ele>1400.6</ele><time>2026-04-07T14:07:58.713Z</time></trkpt><trkpt lat="44.8737447" lon="7.203365"><ele>1401.0</ele><time>2026-04-07T14:07:59.712Z</time></trkpt><trkpt lat="44.8737313" lon="7.2035095"><ele>1402.8</ele><time>2026-04-07T14:08:00.713Z</time></trkpt><trkpt lat="44.8737206" lon="7.2036506"><ele>1404.6</ele><time>2026-04-07T14:08:01.713Z</time></trkpt><trkpt lat="44.8737046" lon="7.2037831"><ele>1406.4</ele><time>2026-04-07T14:08:02.713Z</time></trkpt><trkpt lat="44.8736736" lon="7.2038995"><ele>1408.2</ele><time>2026-04-07T14:08:03.713Z</time></trkpt><trkpt lat="44.8736393" lon="7.2040144"><ele>1410.0</ele><time>2026-04-07T14:08:04.713Z</time></trkpt><trkpt lat="44.8736158" lon="7.2041389"><ele>1410.0</ele><time>2026-04-07T14:08:05.713Z</time></trkpt><trkpt lat="44.8735978" lon="7.2042719"><ele>1410.0</ele><time>2026-04-07T14:08:06.713Z</time></trkpt><trkpt lat="44.8735812" lon="7.2044088"><ele>1410.0</ele><time>2026-04-07T14:08:07.713Z</time></trkpt><trkpt lat="44.8735678" lon="7.2045474"><ele>1410.0</ele><time>2026-04-07T14:08:08.713Z</time></trkpt><trkpt lat="44.8735574" lon="7.2046826"><ele>1410.0</ele><time>2026-04-07T14:08:09.713Z</time></trkpt><trkpt lat="44.8735513" lon="7.2048161"><ele>1410.3333333333333</ele><time>2026-04-07T14:08:10.713Z</time></trkpt><trkpt lat="44.873541" lon="7.2049441"><ele>1410.6666666666667</ele><time>2026-04-07T14:08:11.713Z</time></trkpt><trkpt lat="44.8735227" lon="7.205073"><ele>1411.0</ele><time>2026-04-07T14:08:12.713Z</time></trkpt><trkpt lat="44.8734959" lon="7.2051973"><ele>1411.3333333333335</ele><time>2026-04-07T14:08:13.713Z</time></trkpt><trkpt lat="44.8734662" lon="7.2053212"><ele>1411.6666666666667</ele><time>2026-04-07T14:08:14.713Z</time></trkpt><trkpt lat="44.8734375" lon="7.2054239"><ele>1412.0</ele><time>2026-04-07T14:08:15.713Z</time></trkpt><trkpt lat="44.8734074" lon="7.2055143"><ele>1407.8333333333335</ele><time>2026-04-07T14:08:16.713Z</time></trkpt><trkpt lat="44.8733603" lon="7.2055849"><ele>1403.6666666666667</ele><time>2026-04-07T14:08:17.713Z</time></trkpt><trkpt lat="44.873294" lon="7.2056353"><ele>1399.5</ele><time>2026-04-07T14:08:18.713Z</time></trkpt><trkpt lat="44.873214" lon="7.2056812"><ele>1395.3333333333333</ele><time>2026-04-07T14:08:19.713Z</time></trkpt><trkpt lat="44.8731433" lon="7.2057359"><ele>1391.1666666666665</ele><time>2026-04-07T14:08:20.713Z</time></trkpt><trkpt lat="44.8730849" lon="7.2057951"><ele>1387.0</ele><time>2026-04-07T14:08:21.713Z</time></trkpt><trkpt lat="44.8730333" lon="7.2058632"><ele>1387.0</ele><time>2026-04-07T14:08:22.713Z</time></trkpt><trkpt lat="44.8729964" lon="7.2059356"><ele>1387.0</ele><time>2026-04-07T14:08:23.713Z</time></trkpt><trkpt lat="44.8729341" lon="7.2060534"><ele>1387.0</ele><time>2026-04-07T14:08:25.713Z</time></trkpt><trkpt lat="44.8728638" lon="7.2060588"><ele>1387.0</ele><time>2026-04-07T14:08:27.712Z</time></trkpt><trkpt lat="44.872838" lon="7.2059655"><ele>1387.0</ele><time>2026-04-07T14:08:29.713Z</time></trkpt><trkpt lat="44.8729381" lon="7.2058216"><ele>1387.0</ele><time>2026-04-07T14:08:31.713Z</time></trkpt><trkpt lat="44.8730062" lon="7.2057294"><ele>1387.0</ele><time>2026-04-07T14:08:32.713Z</time></trkpt><trkpt lat="44.8730673" lon="7.205632"><ele>1387.0</ele><time>2026-04-07T14:08:33.712Z</time></trkpt><trkpt lat="44.8731201" lon="7.2055435"><ele>1387.0</ele><time>2026-04-07T14:08:34.713Z</time></trkpt><trkpt lat="44.8731725" lon="7.2054674"><ele>1387.0</ele><time>2026-04-07T14:08:35.713Z</time></trkpt><trkpt lat="44.873222" lon="7.2053947"><ele>1387.0</ele><time>2026-04-07T14:08:36.713Z</time></trkpt><trkpt lat="44.8732579" lon="7.2053137"><ele>1384.1666666666665</ele><time>2026-04-07T14:08:37.712Z</time></trkpt><trkpt lat="44.8732733" lon="7.2052202"><ele>1381.3333333333333</ele><time>2026-04-07T14:08:38.713Z</time></trkpt><trkpt lat="44.8732738" lon="7.2051184"><ele>1378.5</ele><time>2026-04-07T14:08:39.713Z</time></trkpt><trkpt lat="44.8732673" lon="7.205017"><ele>1375.6666666666667</ele><time>2026-04-07T14:08:40.713Z</time></trkpt><trkpt lat="44.8732618" lon="7.2049246"><ele>1372.8333333333335</ele><time>2026-04-07T14:08:41.713Z</time></trkpt><trkpt lat="44.873251" lon="7.204782"><ele>1370.0</ele><time>2026-04-07T14:08:43.713Z</time></trkpt><trkpt lat="44.8731977" lon="7.2047182"><ele>1370.0</ele><time>2026-04-07T14:08:45.713Z</time></trkpt><trkpt lat="44.8731322" lon="7.2047967"><ele>1370.0</ele><time>2026-04-07T14:08:47.713Z</time></trkpt><trkpt lat="44.8731214" lon="7.2048885"><ele>1370.0</ele><time>2026-04-07T14:08:48.713Z</time></trkpt><trkpt lat="44.8731138" lon="7.2049992"><ele>1370.0</ele><time>2026-04-07T14:08:49.713Z</time></trkpt><trkpt lat="44.873106" lon="7.2050999"><ele>1370.0</ele><time>2026-04-07T14:08:50.713Z</time></trkpt><trkpt lat="44.8730564" lon="7.2052479"><ele>1370.0</ele><time>2026-04-07T14:08:52.713Z</time></trkpt><trkpt lat="44.8729583" lon="7.2053414"><ele>1369.8333333333335</ele><time>2026-04-07T14:08:54.713Z</time></trkpt><trkpt lat="44.8728893" lon="7.2053701"><ele>1369.6666666666667</ele><time>2026-04-07T14:08:55.713Z</time></trkpt><trkpt lat="44.8728171" lon="7.2054029"><ele>1369.5</ele><time>2026-04-07T14:08:56.713Z</time></trkpt><trkpt lat="44.8727435" lon="7.2054517"><ele>1369.3333333333333</ele><time>2026-04-07T14:08:57.713Z</time></trkpt><trkpt lat="44.8726734" lon="7.2055117"><ele>1369.1666666666665</ele><time>2026-04-07T14:08:58.712Z</time></trkpt><trkpt lat="44.8726078" lon="7.2055797"><ele>1369.0</ele><time>2026-04-07T14:08:59.713Z</time></trkpt><trkpt lat="44.8725509" lon="7.2056612"><ele>1365.6666666666665</ele><time>2026-04-07T14:09:00.713Z</time></trkpt><trkpt lat="44.8725045" lon="7.2057606"><ele>1362.3333333333333</ele><time>2026-04-07T14:09:01.713Z</time></trkpt><trkpt lat="44.8724706" lon="7.2058738"><ele>1359.0</ele><time>2026-04-07T14:09:02.712Z</time></trkpt><trkpt lat="44.8724418" lon="7.2059941"><ele>1355.6666666666667</ele><time>2026-04-07T14:09:03.713Z</time></trkpt><trkpt lat="44.8724128" lon="7.2060959"><ele>1352.3333333333335</ele><time>2026-04-07T14:09:04.713Z</time></trkpt><trkpt lat="44.8723885" lon="7.2061943"><ele>1349.0</ele><time>2026-04-07T14:09:05.713Z</time></trkpt><trkpt lat="44.872362" lon="7.2062796"><ele>1349.0</ele><time>2026-04-07T14:09:06.713Z</time></trkpt><trkpt lat="44.8723487" lon="7.2063675"><ele>1349.0</ele><time>2026-04-07T14:09:07.713Z</time></trkpt><trkpt lat="44.8723596" lon="7.2064651"><ele>1349.0</ele><time>2026-04-07T14:09:08.712Z</time></trkpt><trkpt lat="44.8724038" lon="7.2065586"><ele>1349.0</ele><time>2026-04-07T14:09:09.712Z</time></trkpt><trkpt lat="44.8724669" lon="7.2066563"><ele>1349.0</ele><time>2026-04-07T14:09:10.713Z</time></trkpt><trkpt lat="44.8725361" lon="7.2067484"><ele>1349.0</ele><time>2026-04-07T14:09:11.713Z</time></trkpt><trkpt lat="44.8726054" lon="7.2068335"><ele>1355.3333333333335</ele><time>2026-04-07T14:09:12.713Z</time></trkpt><trkpt lat="44.8726746" lon="7.2069154"><ele>1361.6666666666667</ele><time>2026-04-07T14:09:13.713Z</time></trkpt><trkpt lat="44.8727405" lon="7.2069901"><ele>1368.0</ele><time>2026-04-07T14:09:14.713Z</time></trkpt><trkpt lat="44.8728071" lon="7.2070671"><ele>1374.3333333333333</ele><time>2026-04-07T14:09:15.713Z</time></trkpt><trkpt lat="44.8728669" lon="7.2071486"><ele>1380.6666666666665</ele><time>2026-04-07T14:09:16.713Z</time></trkpt><trkpt lat="44.8729234" lon="7.2072184"><ele>1387.0</ele><time>2026-04-07T14:09:17.713Z</time></trkpt><trkpt lat="44.8729744" lon="7.2072879"><ele>1383.8333333333333</ele><time>2026-04-07T14:09:18.713Z</time></trkpt><trkpt lat="44.8730237" lon="7.2073595"><ele>1380.6666666666665</ele><time>2026-04-07T14:09:19.713Z</time></trkpt><trkpt lat="44.8730553" lon="7.2074463"><ele>1377.5</ele><time>2026-04-07T14:09:20.713Z</time></trkpt><trkpt lat="44.8730683" lon="7.20754"><ele>1374.3333333333333</ele><time>2026-04-07T14:09:21.713Z</time></trkpt><trkpt lat="44.873061" lon="7.2076383"><ele>1371.1666666666667</ele><time>2026-04-07T14:09:22.713Z</time></trkpt><trkpt lat="44.8730302" lon="7.2077468"><ele>1368.0</ele><time>2026-04-07T14:09:23.713Z</time></trkpt><trkpt lat="44.8729846" lon="7.2078658"><ele>1368.0</ele><time>2026-04-07T14:09:24.712Z</time></trkpt><trkpt lat="44.8729286" lon="7.2079902"><ele>1368.0</ele><time>2026-04-07T14:09:25.713Z</time></trkpt><trkpt lat="44.872871" lon="7.2081132"><ele>1368.0</ele><time>2026-04-07T14:09:26.713Z</time></trkpt><trkpt lat="44.8728117" lon="7.208231"><ele>1368.0</ele><time>2026-04-07T14:09:27.713Z</time></trkpt><trkpt lat="44.8727501" lon="7.2083428"><ele>1368.0</ele><time>2026-04-07T14:09:28.713Z</time></trkpt><trkpt lat="44.8726884" lon="7.2084463"><ele>1368.6000000000001</ele><time>2026-04-07T14:09:29.713Z</time></trkpt><trkpt lat="44.8726351" lon="7.2085462"><ele>1369.2</ele><time>2026-04-07T14:09:30.713Z</time></trkpt><trkpt lat="44.8725879" lon="7.2086472"><ele>1369.8</ele><time>2026-04-07T14:09:31.713Z</time></trkpt><trkpt lat="44.8725586" lon="7.2087654"><ele>1370.4</ele><time>2026-04-07T14:09:32.713Z</time></trkpt><trkpt lat="44.8725476" lon="7.2088934"><ele>1371.0</ele><time>2026-04-07T14:09:33.713Z</time></trkpt><trkpt lat="44.8725462" lon="7.2090381"><ele>1362.4</ele><time>2026-04-07T14:09:34.713Z</time></trkpt><trkpt lat="44.8725381" lon="7.2091873"><ele>1353.8</ele><time>2026-04-07T14:09:35.713Z</time></trkpt><trkpt lat="44.8725298" lon="7.2093215"><ele>1345.2</ele><time>2026-04-07T14:09:36.713Z</time></trkpt><trkpt lat="44.8725174" lon="7.2094473"><ele>1336.6000000000001</ele><time>2026-04-07T14:09:37.713Z</time></trkpt><trkpt lat="44.8724858" lon="7.209573"><ele>1328.0</ele><time>2026-04-07T14:09:38.712Z</time></trkpt><trkpt lat="44.8724256" lon="7.2096822"><ele>1328.0</ele><time>2026-04-07T14:09:39.713Z</time></trkpt><trkpt lat="44.8723532" lon="7.2097642"><ele>1328.0</ele><time>2026-04-07T14:09:40.713Z</time></trkpt><trkpt lat="44.8722724" lon="7.2098243"><ele>1328.0</ele><time>2026-04-07T14:09:41.713Z</time></trkpt><trkpt lat="44.8721868" lon="7.2098608"><ele>1328.0</ele><time>2026-04-07T14:09:42.713Z</time></trkpt><trkpt lat="44.8720971" lon="7.2098714"><ele>1328.0</ele><time>2026-04-07T14:09:43.713Z</time></trkpt><trkpt lat="44.8720118" lon="7.2098946"><ele>1330.5</ele><time>2026-04-07T14:09:44.713Z</time></trkpt><trkpt lat="44.8719327" lon="7.2099313"><ele>1333.0</ele><time>2026-04-07T14:09:45.713Z</time></trkpt><trkpt lat="44.8718613" lon="7.2099866"><ele>1335.5</ele><time>2026-04-07T14:09:46.713Z</time></trkpt><trkpt lat="44.8718074" lon="7.2100696"><ele>1338.0</ele><time>2026-04-07T14:09:47.713Z</time></trkpt><trkpt lat="44.8717747" lon="7.2101791"><ele>1340.5</ele><time>2026-04-07T14:09:48.713Z</time></trkpt><trkpt lat="44.871761" lon="7.2103064"><ele>1343.0</ele><time>2026-04-07T14:09:49.713Z</time></trkpt><trkpt lat="44.8717542" lon="7.210454"><ele>1338.6666666666667</ele><time>2026-04-07T14:09:50.713Z</time></trkpt><trkpt lat="44.8717399" lon="7.2105932"><ele>1334.3333333333335</ele><time>2026-04-07T14:09:51.713Z</time></trkpt><trkpt lat="44.8717127" lon="7.2107232"><ele>1330.0</ele><time>2026-04-07T14:09:52.713Z</time></trkpt><trkpt lat="44.871683" lon="7.2108469"><ele>1325.6666666666667</ele><time>2026-04-07T14:09:53.713Z</time></trkpt><trkpt lat="44.8716469" lon="7.2109563"><ele>1321.3333333333333</ele><time>2026-04-07T14:09:54.713Z</time></trkpt><trkpt lat="44.8716143" lon="7.2110428"><ele>1317.0</ele><time>2026-04-07T14:09:55.713Z</time></trkpt><trkpt lat="44.8715831" lon="7.2111943"><ele>1317.0</ele><time>2026-04-07T14:09:57.713Z</time></trkpt><trkpt lat="44.8715792" lon="7.2113541"><ele>1317.0</ele><time>2026-04-07T14:09:59.713Z</time></trkpt><trkpt lat="44.87158" lon="7.2114526"><ele>1317.0</ele><time>2026-04-07T14:10:00.713Z</time></trkpt><trkpt lat="44.8715808" lon="7.2115663"><ele>1317.0</ele><time>2026-04-07T14:10:01.713Z</time></trkpt><trkpt lat="44.8715873" lon="7.211687"><ele>1317.0</ele><time>2026-04-07T14:10:02.713Z</time></trkpt><trkpt lat="44.8715737" lon="7.2118072"><ele>1317.0</ele><time>2026-04-07T14:10:03.713Z</time></trkpt><trkpt lat="44.8715467" lon="7.2119287"><ele>1318.0</ele><time>2026-04-07T14:10:04.713Z</time></trkpt><trkpt lat="44.8714872" lon="7.2120478"><ele>1319.0</ele><time>2026-04-07T14:10:05.713Z</time></trkpt><trkpt lat="44.8714211" lon="7.2121599"><ele>1320.0</ele><time>2026-04-07T14:10:06.713Z</time></trkpt><trkpt lat="44.871354" lon="7.212272"><ele>1321.0</ele><time>2026-04-07T14:10:07.713Z</time></trkpt><trkpt lat="44.8712996" lon="7.2123858"><ele>1322.0</ele><time>2026-04-07T14:10:08.713Z</time></trkpt><trkpt lat="44.8712555" lon="7.2125041"><ele>1324.5</ele><time>2026-04-07T14:10:09.713Z</time></trkpt><trkpt lat="44.8712134" lon="7.2126158"><ele>1327.0</ele><time>2026-04-07T14:10:10.713Z</time></trkpt><trkpt lat="44.8711626" lon="7.2127098"><ele>1329.5</ele><time>2026-04-07T14:10:11.713Z</time></trkpt><trkpt lat="44.8711046" lon="7.2127852"><ele>1332.0</ele><time>2026-04-07T14:10:12.713Z</time></trkpt><trkpt lat="44.8710337" lon="7.2128207"><ele>1334.5</ele><time>2026-04-07T14:10:13.713Z</time></trkpt><trkpt lat="44.8709616" lon="7.2128218"><ele>1337.0</ele><time>2026-04-07T14:10:14.712Z</time></trkpt><trkpt lat="44.8708908" lon="7.2127845"><ele>1335.3333333333335</ele><time>2026-04-07T14:10:15.713Z</time></trkpt><trkpt lat="44.8708127" lon="7.2127032"><ele>1333.6666666666667</ele><time>2026-04-07T14:10:17.713Z</time></trkpt><trkpt lat="44.8707749" lon="7.2127998"><ele>1332.0</ele><time>2026-04-07T14:10:22.713Z</time></trkpt><trkpt lat="44.8708301" lon="7.2129002"><ele>1330.3333333333333</ele><time>2026-04-07T14:10:24.713Z</time></trkpt><trkpt lat="44.8708939" lon="7.2129954"><ele>1328.6666666666665</ele><time>2026-04-07T14:10:26.713Z</time></trkpt><trkpt lat="44.8709213" lon="7.2131015"><ele>1327.0</ele><time>2026-04-07T14:10:28.713Z</time></trkpt><trkpt lat="44.8708876" lon="7.2131936"><ele>1327.0</ele><time>2026-04-07T14:10:30.713Z</time></trkpt><trkpt lat="44.8708241" lon="7.2132759"><ele>1327.0</ele><time>2026-04-07T14:10:32.713Z</time></trkpt><trkpt lat="44.870743" lon="7.2133693"><ele>1327.0</ele><time>2026-04-07T14:10:34.713Z</time></trkpt><trkpt lat="44.8706403" lon="7.2134181"><ele>1327.0</ele><time>2026-04-07T14:10:36.713Z</time></trkpt><trkpt lat="44.8705139" lon="7.2134157"><ele>1327.0</ele><time>2026-04-07T14:10:38.713Z</time></trkpt><trkpt lat="44.8704464" lon="7.2134093"><ele>1327.0</ele><time>2026-04-07T14:10:39.713Z</time></trkpt><trkpt lat="44.8703347" lon="7.213376"><ele>1327.0</ele><time>2026-04-07T14:10:41.712Z</time></trkpt><trkpt lat="44.8702428" lon="7.2133387"><ele>1327.0</ele><time>2026-04-07T14:10:43.713Z</time></trkpt><trkpt lat="44.8701487" lon="7.2133394"><ele>1327.0</ele><time>2026-04-07T14:10:45.713Z</time></trkpt><trkpt lat="44.8700835" lon="7.2133633"><ele>1327.0</ele><time>2026-04-07T14:10:46.713Z</time></trkpt><trkpt lat="44.8700165" lon="7.2133988"><ele>1327.0</ele><time>2026-04-07T14:10:47.713Z</time></trkpt><trkpt lat="44.8699573" lon="7.2134424"><ele>1327.3999999999999</ele><time>2026-04-07T14:10:48.713Z</time></trkpt><trkpt lat="44.8698598" lon="7.2135266"><ele>1327.8</ele><time>2026-04-07T14:10:50.713Z</time></trkpt><trkpt lat="44.8697886" lon="7.2136317"><ele>1328.2</ele><time>2026-04-07T14:10:52.713Z</time></trkpt><trkpt lat="44.8697264" lon="7.2137581"><ele>1328.6</ele><time>2026-04-07T14:10:54.713Z</time></trkpt><trkpt lat="44.8696843" lon="7.2139128"><ele>1329.0</ele><time>2026-04-07T14:10:56.712Z</time></trkpt><trkpt lat="44.8696706" lon="7.2140119"><ele>1329.0</ele><time>2026-04-07T14:10:57.712Z</time></trkpt><trkpt lat="44.8696503" lon="7.2141229"><ele>1329.0</ele><time>2026-04-07T14:10:58.712Z</time></trkpt><trkpt lat="44.8696351" lon="7.2142352"><ele>1329.0</ele><time>2026-04-07T14:10:59.712Z</time></trkpt><trkpt lat="44.8696239" lon="7.2143485"><ele>1329.0</ele><time>2026-04-07T14:11:00.712Z</time></trkpt><trkpt lat="44.869607" lon="7.2144634"><ele>1329.0</ele><time>2026-04-07T14:11:01.712Z</time></trkpt><trkpt lat="44.8695999" lon="7.2145696"><ele>1329.0</ele><time>2026-04-07T14:11:02.712Z</time></trkpt><trkpt lat="44.869594" lon="7.2146675"><ele>1329.0</ele><time>2026-04-07T14:11:03.712Z</time></trkpt><trkpt lat="44.8695947" lon="7.2147731"><ele>1329.0</ele><time>2026-04-07T14:11:04.712Z</time></trkpt><trkpt lat="44.8695936" lon="7.2148879"><ele>1329.0</ele><time>2026-04-07T14:11:05.711Z</time></trkpt><trkpt lat="44.8695829" lon="7.2150164"><ele>1329.0</ele><time>2026-04-07T14:11:06.712Z</time></trkpt><trkpt lat="44.8695648" lon="7.2151344"><ele>1329.0</ele><time>2026-04-07T14:11:07.712Z</time></trkpt><trkpt lat="44.8695199" lon="7.2152451"><ele>1329.0</ele><time>2026-04-07T14:11:08.712Z</time></trkpt><trkpt lat="44.8694573" lon="7.2153459"><ele>1328.0</ele><time>2026-04-07T14:11:09.712Z</time></trkpt><trkpt lat="44.869386" lon="7.2154339"><ele>1327.0</ele><time>2026-04-07T14:11:10.712Z</time></trkpt><trkpt lat="44.8693137" lon="7.2155105"><ele>1326.0</ele><time>2026-04-07T14:11:11.711Z</time></trkpt><trkpt lat="44.8692465" lon="7.215571"><ele>1325.0</ele><time>2026-04-07T14:11:12.712Z</time></trkpt><trkpt lat="44.8691788" lon="7.2156223"><ele>1324.0</ele><time>2026-04-07T14:11:13.712Z</time></trkpt><trkpt lat="44.8691151" lon="7.2156807"><ele>1323.0</ele><time>2026-04-07T14:11:14.712Z</time></trkpt><trkpt lat="44.8690557" lon="7.2157386"><ele>1323.0</ele><time>2026-04-07T14:11:15.712Z</time></trkpt><trkpt lat="44.8690003" lon="7.2158154"><ele>1323.0</ele><time>2026-04-07T14:11:16.712Z</time></trkpt><trkpt lat="44.8689624" lon="7.2159006"><ele>1323.0</ele><time>2026-04-07T14:11:17.712Z</time></trkpt><trkpt lat="44.8689369" lon="7.2159992"><ele>1323.0</ele><time>2026-04-07T14:11:18.712Z</time></trkpt><trkpt lat="44.8689203" lon="7.2161028"><ele>1323.0</ele><time>2026-04-07T14:11:19.712Z</time></trkpt><trkpt lat="44.8689083" lon="7.2162048"><ele>1323.0</ele><time>2026-04-07T14:11:20.712Z</time></trkpt><trkpt lat="44.8688935" lon="7.2163019"><ele>1323.0</ele><time>2026-04-07T14:11:21.712Z</time></trkpt><trkpt lat="44.8688841" lon="7.2163946"><ele>1324.7142857142858</ele><time>2026-04-07T14:11:22.712Z</time></trkpt><trkpt lat="44.8688957" lon="7.2164867"><ele>1326.4285714285716</ele><time>2026-04-07T14:11:23.712Z</time></trkpt><trkpt lat="44.8689078" lon="7.2165812"><ele>1328.142857142857</ele><time>2026-04-07T14:11:24.712Z</time></trkpt><trkpt lat="44.8689165" lon="7.2166789"><ele>1329.857142857143</ele><time>2026-04-07T14:11:25.711Z</time></trkpt><trkpt lat="44.8689213" lon="7.2167768"><ele>1331.5714285714287</ele><time>2026-04-07T14:11:26.712Z</time></trkpt><trkpt lat="44.8689157" lon="7.2168786"><ele>1333.2857142857142</ele><time>2026-04-07T14:11:27.712Z</time></trkpt><trkpt lat="44.8688952" lon="7.2169791"><ele>1335.0</ele><time>2026-04-07T14:11:28.712Z</time></trkpt><trkpt lat="44.868864" lon="7.2170711"><ele>1335.0</ele><time>2026-04-07T14:11:29.712Z</time></trkpt><trkpt lat="44.8688256" lon="7.2171635"><ele>1335.0</ele><time>2026-04-07T14:11:30.712Z</time></trkpt><trkpt lat="44.8687741" lon="7.217245"><ele>1335.0</ele><time>2026-04-07T14:11:31.712Z</time></trkpt><trkpt lat="44.8687154" lon="7.2173167"><ele>1335.0</ele><time>2026-04-07T14:11:32.712Z</time></trkpt><trkpt lat="44.8686502" lon="7.2173786"><ele>1335.0</ele><time>2026-04-07T14:11:33.712Z</time></trkpt><trkpt lat="44.8685944" lon="7.2174499"><ele>1335.0</ele><time>2026-04-07T14:11:34.712Z</time></trkpt><trkpt lat="44.8685406" lon="7.2175306"><ele>1337.6666666666667</ele><time>2026-04-07T14:11:35.712Z</time></trkpt><trkpt lat="44.868491" lon="7.2176128"><ele>1340.3333333333333</ele><time>2026-04-07T14:11:36.712Z</time></trkpt><trkpt lat="44.8684388" lon="7.2176976"><ele>1343.0</ele><time>2026-04-07T14:11:37.712Z</time></trkpt><trkpt lat="44.8683878" lon="7.2177752"><ele>1345.6666666666665</ele><time>2026-04-07T14:11:38.712Z</time></trkpt><trkpt lat="44.8683344" lon="7.2178555"><ele>1348.3333333333333</ele><time>2026-04-07T14:11:39.712Z</time></trkpt><trkpt lat="44.8682732" lon="7.217925"><ele>1351.0</ele><time>2026-04-07T14:11:40.712Z</time></trkpt><trkpt lat="44.8682098" lon="7.2179874"><ele>1349.1666666666665</ele><time>2026-04-07T14:11:41.711Z</time></trkpt><trkpt lat="44.8681474" lon="7.2180544"><ele>1347.3333333333333</ele><time>2026-04-07T14:11:42.712Z</time></trkpt><trkpt lat="44.8680879" lon="7.2181245"><ele>1345.5</ele><time>2026-04-07T14:11:43.712Z</time></trkpt><trkpt lat="44.8680316" lon="7.2181998"><ele>1343.6666666666667</ele><time>2026-04-07T14:11:44.712Z</time></trkpt><trkpt lat="44.8679689" lon="7.2182832"><ele>1341.8333333333335</ele><time>2026-04-07T14:11:45.712Z</time></trkpt><trkpt lat="44.867903" lon="7.2183803"><ele>1340.0</ele><time>2026-04-07T14:11:46.712Z</time></trkpt><trkpt lat="44.8678363" lon="7.2184743"><ele>1339.9999999999998</ele><time>2026-04-07T14:11:47.712Z</time></trkpt><trkpt lat="44.8677796" lon="7.2185553"><ele>1340.0</ele><time>2026-04-07T14:11:48.712Z</time></trkpt><trkpt lat="44.8677181" lon="7.2186254"><ele>1340.0</ele><time>2026-04-07T14:11:49.712Z</time></trkpt><trkpt lat="44.8676574" lon="7.2186866"><ele>1340.0</ele><time>2026-04-07T14:11:50.711Z</time></trkpt><trkpt lat="44.8675939" lon="7.2187433"><ele>1340.0</ele><time>2026-04-07T14:11:51.712Z</time></trkpt><trkpt lat="44.8675411" lon="7.2187993"><ele>1339.9999999999998</ele><time>2026-04-07T14:11:52.712Z</time></trkpt><trkpt lat="44.8674874" lon="7.218863"><ele>1340.0</ele><time>2026-04-07T14:11:53.712Z</time></trkpt><trkpt lat="44.8674368" lon="7.2189293"><ele>1338.1666666666667</ele><time>2026-04-07T14:11:54.712Z</time></trkpt><trkpt lat="44.8673858" lon="7.2189985"><ele>1336.3333333333335</ele><time>2026-04-07T14:11:55.712Z</time></trkpt><trkpt lat="44.8673398" lon="7.2190721"><ele>1334.5</ele><time>2026-04-07T14:11:56.712Z</time></trkpt><trkpt lat="44.8672992" lon="7.2191484"><ele>1332.6666666666667</ele><time>2026-04-07T14:11:57.712Z</time></trkpt><trkpt lat="44.8672549" lon="7.2192987"><ele>1330.8333333333333</ele><time>2026-04-07T14:11:59.712Z</time></trkpt><trkpt lat="44.8672428" lon="7.2194344"><ele>1329.0</ele><time>2026-04-07T14:12:01.712Z</time></trkpt><trkpt lat="44.8671931" lon="7.219574"><ele>1329.0</ele><time>2026-04-07T14:12:03.712Z</time></trkpt><trkpt lat="44.8671022" lon="7.2196692"><ele>1329.0</ele><time>2026-04-07T14:12:05.712Z</time></trkpt><trkpt lat="44.866983" lon="7.2197468"><ele>1329.0</ele><time>2026-04-07T14:12:07.712Z</time></trkpt><trkpt lat="44.8669183" lon="7.2197818"><ele>1329.0</ele><time>2026-04-07T14:12:08.712Z</time></trkpt><trkpt lat="44.8668554" lon="7.2198153"><ele>1329.0</ele><time>2026-04-07T14:12:09.712Z</time></trkpt><trkpt lat="44.8667882" lon="7.2198474"><ele>1328.1666666666667</ele><time>2026-04-07T14:12:10.712Z</time></trkpt><trkpt lat="44.8667237" lon="7.2198844"><ele>1327.3333333333333</ele><time>2026-04-07T14:12:11.712Z</time></trkpt><trkpt lat="44.8666582" lon="7.2199351"><ele>1326.5</ele><time>2026-04-07T14:12:12.711Z</time></trkpt><trkpt lat="44.8665862" lon="7.2199982"><ele>1325.6666666666665</ele><time>2026-04-07T14:12:13.712Z</time></trkpt><trkpt lat="44.8665088" lon="7.2200727"><ele>1324.8333333333333</ele><time>2026-04-07T14:12:14.712Z</time></trkpt><trkpt lat="44.8664287" lon="7.2201554"><ele>1324.0</ele><time>2026-04-07T14:12:15.712Z</time></trkpt><trkpt lat="44.8663456" lon="7.2202408"><ele>1324.0</ele><time>2026-04-07T14:12:16.712Z</time></trkpt><trkpt lat="44.8662693" lon="7.2203211"><ele>1324.0</ele><time>2026-04-07T14:12:17.712Z</time></trkpt><trkpt lat="44.8661928" lon="7.2203869"><ele>1324.0</ele><time>2026-04-07T14:12:18.712Z</time></trkpt><trkpt lat="44.8661165" lon="7.2204409"><ele>1324.0</ele><time>2026-04-07T14:12:19.712Z</time></trkpt><trkpt lat="44.866048" lon="7.2204839"><ele>1324.0</ele><time>2026-04-07T14:12:20.712Z</time></trkpt><trkpt lat="44.8659497" lon="7.2205343"><ele>1322.8000000000002</ele><time>2026-04-07T14:12:22.712Z</time></trkpt><trkpt lat="44.8658864" lon="7.2205715"><ele>1321.6000000000001</ele><time>2026-04-07T14:12:24.711Z</time></trkpt><trkpt lat="44.8658251" lon="7.2206373"><ele>1320.4</ele><time>2026-04-07T14:12:26.712Z</time></trkpt><trkpt lat="44.8657747" lon="7.2207627"><ele>1319.2</ele><time>2026-04-07T14:12:28.712Z</time></trkpt><trkpt lat="44.8657562" lon="7.2209456"><ele>1318.0</ele><time>2026-04-07T14:12:30.712Z</time></trkpt><trkpt lat="44.8657482" lon="7.2210484"><ele>1318.0</ele><time>2026-04-07T14:12:31.712Z</time></trkpt><trkpt lat="44.8657277" lon="7.2211557"><ele>1318.0</ele><time>2026-04-07T14:12:32.712Z</time></trkpt><trkpt lat="44.8657006" lon="7.2212668"><ele>1318.0</ele><time>2026-04-07T14:12:33.711Z</time></trkpt><trkpt lat="44.8656692" lon="7.2213732"><ele>1318.0</ele><time>2026-04-07T14:12:34.712Z</time></trkpt><trkpt lat="44.8656354" lon="7.2214716"><ele>1318.0</ele><time>2026-04-07T14:12:35.712Z</time></trkpt><trkpt lat="44.8655937" lon="7.2215611"><ele>1318.0</ele><time>2026-04-07T14:12:36.712Z</time></trkpt><trkpt lat="44.8655501" lon="7.2216543"><ele>1318.142857142857</ele><time>2026-04-07T14:12:37.712Z</time></trkpt><trkpt lat="44.865516" lon="7.2217414"><ele>1318.2857142857142</ele><time>2026-04-07T14:12:38.712Z</time></trkpt><trkpt lat="44.8654835" lon="7.2218355"><ele>1318.4285714285713</ele><time>2026-04-07T14:12:39.712Z</time></trkpt><trkpt lat="44.8654416" lon="7.2219291"><ele>1318.5714285714284</ele><time>2026-04-07T14:12:40.712Z</time></trkpt><trkpt lat="44.8653956" lon="7.222016"><ele>1318.7142857142858</ele><time>2026-04-07T14:12:41.712Z</time></trkpt><trkpt lat="44.86535" lon="7.2220975"><ele>1318.8571428571427</ele><time>2026-04-07T14:12:42.712Z</time></trkpt><trkpt lat="44.865306" lon="7.2221817"><ele>1319.0</ele><time>2026-04-07T14:12:43.712Z</time></trkpt><trkpt lat="44.8652626" lon="7.222278"><ele>1317.8571428571427</ele><time>2026-04-07T14:12:44.712Z</time></trkpt><trkpt lat="44.8652228" lon="7.22237"><ele>1316.7142857142858</ele><time>2026-04-07T14:12:45.712Z</time></trkpt><trkpt lat="44.8651891" lon="7.2224583"><ele>1315.5714285714284</ele><time>2026-04-07T14:12:46.712Z</time></trkpt><trkpt lat="44.8651574" lon="7.2225559"><ele>1314.4285714285713</ele><time>2026-04-07T14:12:47.712Z</time></trkpt><trkpt lat="44.8651318" lon="7.2226428"><ele>1313.2857142857142</ele><time>2026-04-07T14:12:48.712Z</time></trkpt><trkpt lat="44.865114" lon="7.2227334"><ele>1312.142857142857</ele><time>2026-04-07T14:12:49.712Z</time></trkpt><trkpt lat="44.8650954" lon="7.222819"><ele>1311.0</ele><time>2026-04-07T14:12:50.712Z</time></trkpt><trkpt lat="44.8650747" lon="7.2229055"><ele>1311.0</ele><time>2026-04-07T14:12:51.712Z</time></trkpt><trkpt lat="44.8650518" lon="7.2229959"><ele>1311.0</ele><time>2026-04-07T14:12:52.712Z</time></trkpt><trkpt lat="44.8650209" lon="7.2230869"><ele>1311.0</ele><time>2026-04-07T14:12:53.712Z</time></trkpt><trkpt lat="44.8649886" lon="7.2231797"><ele>1311.0</ele><time>2026-04-07T14:12:54.712Z</time></trkpt><trkpt lat="44.8649461" lon="7.2232713"><ele>1311.0</ele><time>2026-04-07T14:12:55.712Z</time></trkpt><trkpt lat="44.864906" lon="7.2233681"><ele>1311.0</ele><time>2026-04-07T14:12:56.712Z</time></trkpt><trkpt lat="44.8648673" lon="7.2234614"><ele>1311.0</ele><time>2026-04-07T14:12:57.712Z</time></trkpt><trkpt lat="44.8648282" lon="7.2235532"><ele>1311.1666666666667</ele><time>2026-04-07T14:12:58.712Z</time></trkpt><trkpt lat="44.8647861" lon="7.2236708"><ele>1311.3333333333333</ele><time>2026-04-07T14:13:00.712Z</time></trkpt><trkpt lat="44.8647261" lon="7.2237457"><ele>1311.5</ele><time>2026-04-07T14:13:02.712Z</time></trkpt><trkpt lat="44.8646485" lon="7.2238649"><ele>1311.6666666666665</ele><time>2026-04-07T14:13:04.712Z</time></trkpt><trkpt lat="44.864615" lon="7.2239467"><ele>1311.8333333333333</ele><time>2026-04-07T14:13:05.712Z</time></trkpt><trkpt lat="44.8645903" lon="7.2240346"><ele>1312.0</ele><time>2026-04-07T14:13:06.711Z</time></trkpt><trkpt lat="44.8645716" lon="7.2241318"><ele>1309.3333333333333</ele><time>2026-04-07T14:13:07.712Z</time></trkpt><trkpt lat="44.8645525" lon="7.2242322"><ele>1306.6666666666665</ele><time>2026-04-07T14:13:08.712Z</time></trkpt><trkpt lat="44.8645187" lon="7.2243368"><ele>1304.0</ele><time>2026-04-07T14:13:09.712Z</time></trkpt><trkpt lat="44.8644776" lon="7.2244272"><ele>1301.3333333333333</ele><time>2026-04-07T14:13:10.712Z</time></trkpt><trkpt lat="44.8644233" lon="7.2245157"><ele>1298.6666666666667</ele><time>2026-04-07T14:13:11.712Z</time></trkpt><trkpt lat="44.8643695" lon="7.2246055"><ele>1296.0</ele><time>2026-04-07T14:13:12.712Z</time></trkpt><trkpt lat="44.8643179" lon="7.2246998"><ele>1297.1666666666667</ele><time>2026-04-07T14:13:13.712Z</time></trkpt><trkpt lat="44.8642621" lon="7.2247945"><ele>1298.3333333333333</ele><time>2026-04-07T14:13:14.712Z</time></trkpt><trkpt lat="44.8642076" lon="7.2248951"><ele>1299.5</ele><time>2026-04-07T14:13:15.712Z</time></trkpt><trkpt lat="44.8641566" lon="7.2249917"><ele>1300.6666666666665</ele><time>2026-04-07T14:13:16.712Z</time></trkpt><trkpt lat="44.8641069" lon="7.2250746"><ele>1301.8333333333333</ele><time>2026-04-07T14:13:17.712Z</time></trkpt><trkpt lat="44.8640671" lon="7.2251537"><ele>1303.0</ele><time>2026-04-07T14:13:18.712Z</time></trkpt><trkpt lat="44.8640253" lon="7.2252341"><ele>1303.5</ele><time>2026-04-07T14:13:19.712Z</time></trkpt><trkpt lat="44.8639837" lon="7.2253215"><ele>1304.0</ele><time>2026-04-07T14:13:20.712Z</time></trkpt><trkpt lat="44.8639461" lon="7.2254227"><ele>1304.5</ele><time>2026-04-07T14:13:21.712Z</time></trkpt><trkpt lat="44.8639108" lon="7.2255316"><ele>1305.0</ele><time>2026-04-07T14:13:22.712Z</time></trkpt><trkpt lat="44.8638826" lon="7.2256436"><ele>1305.5</ele><time>2026-04-07T14:13:23.712Z</time></trkpt><trkpt lat="44.8638577" lon="7.2257625"><ele>1306.0</ele><time>2026-04-07T14:13:24.712Z</time></trkpt><trkpt lat="44.8638411" lon="7.2258777"><ele>1306.4</ele><time>2026-04-07T14:13:25.712Z</time></trkpt><trkpt lat="44.8638225" lon="7.225977"><ele>1306.8</ele><time>2026-04-07T14:13:26.712Z</time></trkpt><trkpt lat="44.8637766" lon="7.2261239"><ele>1307.2</ele><time>2026-04-07T14:13:28.712Z</time></trkpt><trkpt lat="44.8637126" lon="7.2262297"><ele>1307.6000000000001</ele><time>2026-04-07T14:13:30.712Z</time></trkpt><trkpt lat="44.8636483" lon="7.2263699"><ele>1308.0</ele><time>2026-04-07T14:13:32.712Z</time></trkpt><trkpt lat="44.8636121" lon="7.2264503"><ele>1308.1666666666667</ele><time>2026-04-07T14:13:33.712Z</time></trkpt><trkpt lat="44.8635699" lon="7.2265348"><ele>1308.3333333333333</ele><time>2026-04-07T14:13:34.712Z</time></trkpt><trkpt lat="44.8635262" lon="7.2266063"><ele>1308.5</ele><time>2026-04-07T14:13:35.712Z</time></trkpt><trkpt lat="44.8634788" lon="7.2266669"><ele>1308.6666666666665</ele><time>2026-04-07T14:13:36.712Z</time></trkpt><trkpt lat="44.863366" lon="7.2267372"><ele>1308.8333333333333</ele><time>2026-04-07T14:13:38.712Z</time></trkpt><trkpt lat="44.8632913" lon="7.2267514"><ele>1309.0</ele><time>2026-04-07T14:13:39.712Z</time></trkpt><trkpt lat="44.8632125" lon="7.2267627"><ele>1309.0</ele><time>2026-04-07T14:13:40.712Z</time></trkpt><trkpt lat="44.8631402" lon="7.226768"><ele>1309.0</ele><time>2026-04-07T14:13:41.712Z</time></trkpt><trkpt lat="44.8630677" lon="7.2267808"><ele>1309.0</ele><time>2026-04-07T14:13:42.712Z</time></trkpt><trkpt lat="44.8629941" lon="7.2267999"><ele>1309.0</ele><time>2026-04-07T14:13:43.712Z</time></trkpt><trkpt lat="44.8629253" lon="7.2268239"><ele>1309.0</ele><time>2026-04-07T14:13:44.712Z</time></trkpt><trkpt lat="44.8628514" lon="7.2268632"><ele>1309.0</ele><time>2026-04-07T14:13:45.712Z</time></trkpt><trkpt lat="44.8627863" lon="7.2269131"><ele>1309.0</ele><time>2026-04-07T14:13:46.712Z</time></trkpt><trkpt lat="44.8627149" lon="7.2269718"><ele>1309.0</ele><time>2026-04-07T14:13:47.712Z</time></trkpt><trkpt lat="44.8626418" lon="7.2270303"><ele>1309.0</ele><time>2026-04-07T14:13:48.712Z</time></trkpt><trkpt lat="44.8625734" lon="7.2271015"><ele>1309.0</ele><time>2026-04-07T14:13:49.712Z</time></trkpt><trkpt lat="44.8625063" lon="7.2271596"><ele>1309.0</ele><time>2026-04-07T14:13:50.712Z</time></trkpt><trkpt lat="44.8624445" lon="7.2272142"><ele>1309.0</ele><time>2026-04-07T14:13:51.712Z</time></trkpt><trkpt lat="44.8623781" lon="7.2272675"><ele>1309.0</ele><time>2026-04-07T14:13:52.712Z</time></trkpt><trkpt lat="44.8623167" lon="7.2273113"><ele>1308.8333333333333</ele><time>2026-04-07T14:13:53.712Z</time></trkpt><trkpt lat="44.8622604" lon="7.2273687"><ele>1308.6666666666665</ele><time>2026-04-07T14:13:54.712Z</time></trkpt><trkpt lat="44.8622056" lon="7.2274339"><ele>1308.5</ele><time>2026-04-07T14:13:55.712Z</time></trkpt><trkpt lat="44.8621584" lon="7.2275115"><ele>1308.3333333333333</ele><time>2026-04-07T14:13:56.712Z</time></trkpt><trkpt lat="44.8621009" lon="7.2275912"><ele>1308.1666666666667</ele><time>2026-04-07T14:13:57.712Z</time></trkpt><trkpt lat="44.8620465" lon="7.2276722"><ele>1308.0</ele><time>2026-04-07T14:13:58.712Z</time></trkpt><trkpt lat="44.8619889" lon="7.2277524"><ele>1308.0</ele><time>2026-04-07T14:13:59.712Z</time></trkpt><trkpt lat="44.8619208" lon="7.227833"><ele>1308.0</ele><time>2026-04-07T14:14:00.712Z</time></trkpt><trkpt lat="44.8618451" lon="7.2279119"><ele>1308.0</ele><time>2026-04-07T14:14:01.712Z</time></trkpt><trkpt lat="44.861776" lon="7.2279865"><ele>1308.0</ele><time>2026-04-07T14:14:02.712Z</time></trkpt><trkpt lat="44.8617154" lon="7.2280592"><ele>1308.0</ele><time>2026-04-07T14:14:03.712Z</time></trkpt><trkpt lat="44.8616172" lon="7.2281617"><ele>1306.1666666666667</ele><time>2026-04-07T14:14:05.712Z</time></trkpt><trkpt lat="44.8615037" lon="7.2282366"><ele>1304.3333333333333</ele><time>2026-04-07T14:14:07.712Z</time></trkpt><trkpt lat="44.8614387" lon="7.2282687"><ele>1302.5</ele><time>2026-04-07T14:14:08.712Z</time></trkpt><trkpt lat="44.8613719" lon="7.2283073"><ele>1300.6666666666665</ele><time>2026-04-07T14:14:09.712Z</time></trkpt><trkpt lat="44.8613073" lon="7.2283493"><ele>1298.8333333333333</ele><time>2026-04-07T14:14:10.712Z</time></trkpt><trkpt lat="44.8612408" lon="7.2283956"><ele>1297.0</ele><time>2026-04-07T14:14:11.712Z</time></trkpt><trkpt lat="44.8611789" lon="7.2284409"><ele>1297.0</ele><time>2026-04-07T14:14:12.712Z</time></trkpt><trkpt lat="44.8611195" lon="7.2284877"><ele>1297.0</ele><time>2026-04-07T14:14:13.712Z</time></trkpt><trkpt lat="44.8610595" lon="7.2285385"><ele>1297.0</ele><time>2026-04-07T14:14:14.712Z</time></trkpt><trkpt lat="44.8609948" lon="7.2285943"><ele>1297.0</ele><time>2026-04-07T14:14:15.712Z</time></trkpt><trkpt lat="44.8609325" lon="7.2286478"><ele>1297.0</ele><time>2026-04-07T14:14:16.712Z</time></trkpt><trkpt lat="44.8608669" lon="7.2286994"><ele>1297.0</ele><time>2026-04-07T14:14:17.711Z</time></trkpt><trkpt lat="44.8607943" lon="7.2287558"><ele>1297.0</ele><time>2026-04-07T14:14:18.712Z</time></trkpt><trkpt lat="44.8607287" lon="7.2288167"><ele>1295.3333333333333</ele><time>2026-04-07T14:14:19.712Z</time></trkpt><trkpt lat="44.8606626" lon="7.22888"><ele>1293.6666666666665</ele><time>2026-04-07T14:14:20.712Z</time></trkpt><trkpt lat="44.8606022" lon="7.2289465"><ele>1292.0</ele><time>2026-04-07T14:14:21.712Z</time></trkpt><trkpt lat="44.8605406" lon="7.2290193"><ele>1290.3333333333333</ele><time>2026-04-07T14:14:22.712Z</time></trkpt><trkpt lat="44.8604792" lon="7.2291036"><ele>1288.6666666666667</ele><time>2026-04-07T14:14:23.712Z</time></trkpt><trkpt lat="44.8604256" lon="7.2291881"><ele>1287.0</ele><time>2026-04-07T14:14:24.711Z</time></trkpt><trkpt lat="44.8603792" lon="7.2292705"><ele>1287.0</ele><time>2026-04-07T14:14:25.712Z</time></trkpt><trkpt lat="44.8603334" lon="7.2293408"><ele>1287.0</ele><time>2026-04-07T14:14:26.712Z</time></trkpt><trkpt lat="44.8602862" lon="7.2294052"><ele>1287.0</ele><time>2026-04-07T14:14:27.712Z</time></trkpt><trkpt lat="44.8602406" lon="7.2294672"><ele>1287.0</ele><time>2026-04-07T14:14:28.712Z</time></trkpt><trkpt lat="44.8601889" lon="7.2295379"><ele>1287.0</ele><time>2026-04-07T14:14:29.712Z</time></trkpt><trkpt lat="44.860137" lon="7.2296206"><ele>1287.0</ele><time>2026-04-07T14:14:30.712Z</time></trkpt><trkpt lat="44.8600914" lon="7.2297042"><ele>1287.0</ele><time>2026-04-07T14:14:31.712Z</time></trkpt><trkpt lat="44.8600457" lon="7.229788"><ele>1283.857142857143</ele><time>2026-04-07T14:14:32.712Z</time></trkpt><trkpt lat="44.8599971" lon="7.2298657"><ele>1280.7142857142858</ele><time>2026-04-07T14:14:33.712Z</time></trkpt><trkpt lat="44.8599475" lon="7.2299414"><ele>1277.5714285714284</ele><time>2026-04-07T14:14:34.712Z</time></trkpt><trkpt lat="44.8598922" lon="7.2300162"><ele>1274.4285714285716</ele><time>2026-04-07T14:14:35.712Z</time></trkpt><trkpt lat="44.8598313" lon="7.2300829"><ele>1271.2857142857144</ele><time>2026-04-07T14:14:36.712Z</time></trkpt><trkpt lat="44.859773" lon="7.2301446"><ele>1268.142857142857</ele><time>2026-04-07T14:14:37.712Z</time></trkpt><trkpt lat="44.8597109" lon="7.2301991"><ele>1265.0</ele><time>2026-04-07T14:14:38.712Z</time></trkpt><trkpt lat="44.8596489" lon="7.2302526"><ele>1265.0</ele><time>2026-04-07T14:14:39.712Z</time></trkpt><trkpt lat="44.859587" lon="7.2302882"><ele>1265.0</ele><time>2026-04-07T14:14:40.712Z</time></trkpt><trkpt lat="44.8595249" lon="7.2303121"><ele>1265.0</ele><time>2026-04-07T14:14:41.712Z</time></trkpt><trkpt lat="44.8594608" lon="7.2303323"><ele>1265.0</ele><time>2026-04-07T14:14:42.712Z</time></trkpt><trkpt lat="44.8593439" lon="7.2303875"><ele>1265.0</ele><time>2026-04-07T14:14:44.712Z</time></trkpt><trkpt lat="44.8592339" lon="7.230466"><ele>1265.0</ele><time>2026-04-07T14:14:46.712Z</time></trkpt><trkpt lat="44.8591359" lon="7.230542"><ele>1263.4</ele><time>2026-04-07T14:14:48.712Z</time></trkpt><trkpt lat="44.8590369" lon="7.2306034"><ele>1261.8</ele><time>2026-04-07T14:14:50.712Z</time></trkpt><trkpt lat="44.8589391" lon="7.2306916"><ele>1260.2</ele><time>2026-04-07T14:14:52.712Z</time></trkpt><trkpt lat="44.8588514" lon="7.2308098"><ele>1258.6</ele><time>2026-04-07T14:14:54.712Z</time></trkpt><trkpt lat="44.8587693" lon="7.2308998"><ele>1257.0</ele><time>2026-04-07T14:14:56.712Z</time></trkpt><trkpt lat="44.8586781" lon="7.2309795"><ele>1257.0</ele><time>2026-04-07T14:14:58.712Z</time></trkpt><trkpt lat="44.8586014" lon="7.2310946"><ele>1257.0</ele><time>2026-04-07T14:15:00.712Z</time></trkpt><trkpt lat="44.8585425" lon="7.2312204"><ele>1257.0</ele><time>2026-04-07T14:15:02.712Z</time></trkpt><trkpt lat="44.8584831" lon="7.2313429"><ele>1257.0</ele><time>2026-04-07T14:15:04.712Z</time></trkpt><trkpt lat="44.8584197" lon="7.2314853"><ele>1257.0</ele><time>2026-04-07T14:15:06.712Z</time></trkpt><trkpt lat="44.858386" lon="7.2315621"><ele>1254.4</ele><time>2026-04-07T14:15:07.712Z</time></trkpt><trkpt lat="44.858328" lon="7.2317049"><ele>1251.8000000000002</ele><time>2026-04-07T14:15:09.711Z</time></trkpt><trkpt lat="44.858283" lon="7.2318479"><ele>1249.2</ele><time>2026-04-07T14:15:11.712Z</time></trkpt><trkpt lat="44.8582454" lon="7.2319995"><ele>1246.6000000000001</ele><time>2026-04-07T14:15:13.712Z</time></trkpt><trkpt lat="44.8582247" lon="7.2321438"><ele>1244.0</ele><time>2026-04-07T14:15:15.712Z</time></trkpt><trkpt lat="44.8581936" lon="7.2322489"><ele>1242.4</ele><time>2026-04-07T14:15:17.712Z</time></trkpt><trkpt lat="44.8581291" lon="7.2323307"><ele>1240.8000000000002</ele><time>2026-04-07T14:15:19.712Z</time></trkpt><trkpt lat="44.8580479" lon="7.232422"><ele>1239.1999999999998</ele><time>2026-04-07T14:15:21.712Z</time></trkpt><trkpt lat="44.8579522" lon="7.2325208"><ele>1237.6</ele><time>2026-04-07T14:15:23.712Z</time></trkpt><trkpt lat="44.8578571" lon="7.2326269"><ele>1236.0</ele><time>2026-04-07T14:15:25.712Z</time></trkpt><trkpt lat="44.8577664" lon="7.232744"><ele>1236.0</ele><time>2026-04-07T14:15:27.712Z</time></trkpt><trkpt lat="44.8577284" lon="7.2328151"><ele>1236.0</ele><time>2026-04-07T14:15:28.712Z</time></trkpt><trkpt lat="44.8576934" lon="7.2328911"><ele>1236.0</ele><time>2026-04-07T14:15:29.712Z</time></trkpt><trkpt lat="44.8576626" lon="7.2329695"><ele>1236.0</ele><time>2026-04-07T14:15:30.712Z</time></trkpt><trkpt lat="44.8575992" lon="7.2330982"><ele>1236.0</ele><time>2026-04-07T14:15:32.712Z</time></trkpt><trkpt lat="44.8575091" lon="7.2332148"><ele>1236.0</ele><time>2026-04-07T14:15:34.712Z</time></trkpt><trkpt lat="44.857409" lon="7.2333186"><ele>1230.5</ele><time>2026-04-07T14:15:36.712Z</time></trkpt><trkpt lat="44.8573243" lon="7.2334469"><ele>1225.0</ele><time>2026-04-07T14:15:38.712Z</time></trkpt><trkpt lat="44.8572713" lon="7.2336099"><ele>1219.5</ele><time>2026-04-07T14:15:40.712Z</time></trkpt><trkpt lat="44.8572141" lon="7.2337675"><ele>1214.0</ele><time>2026-04-07T14:15:42.712Z</time></trkpt><trkpt lat="44.8571314" lon="7.2338913"><ele>1210.0</ele><time>2026-04-07T14:15:44.712Z</time></trkpt><trkpt lat="44.8570532" lon="7.2340034"><ele>1206.0</ele><time>2026-04-07T14:15:46.712Z</time></trkpt><trkpt lat="44.8569832" lon="7.2341004"><ele>1202.0</ele><time>2026-04-07T14:15:48.712Z</time></trkpt><trkpt lat="44.8568994" lon="7.2341927"><ele>1198.0</ele><time>2026-04-07T14:15:50.712Z</time></trkpt><trkpt lat="44.8568272" lon="7.2342809"><ele>1194.0</ele><time>2026-04-07T14:15:52.712Z</time></trkpt><trkpt lat="44.8567562" lon="7.2343752"><ele>1194.0</ele><time>2026-04-07T14:15:54.712Z</time></trkpt><trkpt lat="44.8566873" lon="7.2344767"><ele>1194.0</ele><time>2026-04-07T14:15:56.712Z</time></trkpt><trkpt lat="44.8566195" lon="7.2345663"><ele>1194.0</ele><time>2026-04-07T14:15:58.712Z</time></trkpt><trkpt lat="44.8565464" lon="7.2346368"><ele>1194.0</ele><time>2026-04-07T14:16:00.712Z</time></trkpt><trkpt lat="44.856476" lon="7.234691"><ele>1194.0</ele><time>2026-04-07T14:16:02.712Z</time></trkpt><trkpt lat="44.8564167" lon="7.2347306"><ele>1194.0</ele><time>2026-04-07T14:16:04.712Z</time></trkpt><trkpt lat="44.8563637" lon="7.2347808"><ele>1192.4</ele><time>2026-04-07T14:16:06.712Z</time></trkpt><trkpt lat="44.8563022" lon="7.2348323"><ele>1190.8000000000002</ele><time>2026-04-07T14:16:08.712Z</time></trkpt><trkpt lat="44.8562002" lon="7.234881"><ele>1189.1999999999998</ele><time>2026-04-07T14:16:10.712Z</time></trkpt><trkpt lat="44.8560894" lon="7.2349314"><ele>1187.6</ele><time>2026-04-07T14:16:12.712Z</time></trkpt><trkpt lat="44.855977" lon="7.2349789"><ele>1186.0</ele><time>2026-04-07T14:16:14.712Z</time></trkpt><trkpt lat="44.8559104" lon="7.2350048"><ele>1185.5714285714284</ele><time>2026-04-07T14:16:15.712Z</time></trkpt><trkpt lat="44.855833" lon="7.2350264"><ele>1185.142857142857</ele><time>2026-04-07T14:16:16.712Z</time></trkpt><trkpt lat="44.8557615" lon="7.2350517"><ele>1184.7142857142858</ele><time>2026-04-07T14:16:17.712Z</time></trkpt><trkpt lat="44.8556917" lon="7.2350804"><ele>1184.2857142857142</ele><time>2026-04-07T14:16:18.712Z</time></trkpt><trkpt lat="44.8556285" lon="7.2351063"><ele>1183.857142857143</ele><time>2026-04-07T14:16:19.712Z</time></trkpt><trkpt lat="44.855561" lon="7.23513"><ele>1183.4285714285713</ele><time>2026-04-07T14:16:20.712Z</time></trkpt><trkpt lat="44.8554864" lon="7.235153"><ele>1183.0</ele><time>2026-04-07T14:16:21.712Z</time></trkpt><trkpt lat="44.8554114" lon="7.2351693"><ele>1183.0</ele><time>2026-04-07T14:16:22.712Z</time></trkpt><trkpt lat="44.8553441" lon="7.2351779"><ele>1183.0</ele><time>2026-04-07T14:16:23.712Z</time></trkpt><trkpt lat="44.8552198" lon="7.2351883"><ele>1183.0</ele><time>2026-04-07T14:16:25.712Z</time></trkpt><trkpt lat="44.8551131" lon="7.2352289"><ele>1183.0</ele><time>2026-04-07T14:16:27.712Z</time></trkpt><trkpt lat="44.8550026" lon="7.2353015"><ele>1183.0</ele><time>2026-04-07T14:16:29.712Z</time></trkpt><trkpt lat="44.8549399" lon="7.2353424"><ele>1181.857142857143</ele><time>2026-04-07T14:16:30.712Z</time></trkpt><trkpt lat="44.8548801" lon="7.2353966"><ele>1180.7142857142858</ele><time>2026-04-07T14:16:31.712Z</time></trkpt><trkpt lat="44.8548258" lon="7.235462"><ele>1179.5714285714284</ele><time>2026-04-07T14:16:32.712Z</time></trkpt><trkpt lat="44.8547738" lon="7.2355338"><ele>1178.4285714285716</ele><time>2026-04-07T14:16:33.712Z</time></trkpt><trkpt lat="44.8547194" lon="7.2356064"><ele>1177.2857142857142</ele><time>2026-04-07T14:16:34.712Z</time></trkpt><trkpt lat="44.8546594" lon="7.2356632"><ele>1176.142857142857</ele><time>2026-04-07T14:16:35.712Z</time></trkpt><trkpt lat="44.8545953" lon="7.2356999"><ele>1175.0</ele><time>2026-04-07T14:16:36.712Z</time></trkpt><trkpt lat="44.8545329" lon="7.2357365"><ele>1174.4</ele><time>2026-04-07T14:16:37.712Z</time></trkpt><trkpt lat="44.854471" lon="7.2357782"><ele>1173.8</ele><time>2026-04-07T14:16:38.712Z</time></trkpt><trkpt lat="44.8543611" lon="7.2358457"><ele>1173.2</ele><time>2026-04-07T14:16:40.712Z</time></trkpt><trkpt lat="44.8542825" lon="7.2358919"><ele>1172.6</ele><time>2026-04-07T14:16:42.712Z</time></trkpt><trkpt lat="44.854175" lon="7.2359235"><ele>1172.0</ele><time>2026-04-07T14:16:44.712Z</time></trkpt><trkpt lat="44.8540579" lon="7.2359988"><ele>1172.0</ele><time>2026-04-07T14:16:46.712Z</time></trkpt><trkpt lat="44.8539962" lon="7.2360558"><ele>1172.0</ele><time>2026-04-07T14:16:47.712Z</time></trkpt><trkpt lat="44.8539356" lon="7.2361048"><ele>1172.0</ele><time>2026-04-07T14:16:48.712Z</time></trkpt><trkpt lat="44.8538357" lon="7.2361826"><ele>1172.0</ele><time>2026-04-07T14:16:50.711Z</time></trkpt><trkpt lat="44.8537471" lon="7.2362264"><ele>1172.0</ele><time>2026-04-07T14:16:52.712Z</time></trkpt><trkpt lat="44.8536408" lon="7.2362451"><ele>1171.9999999999998</ele><time>2026-04-07T14:16:54.711Z</time></trkpt><trkpt lat="44.8535292" lon="7.2362648"><ele>1172.0</ele><time>2026-04-07T14:16:56.712Z</time></trkpt><trkpt lat="44.853466" lon="7.2362665"><ele>1172.0</ele><time>2026-04-07T14:16:57.712Z</time></trkpt><trkpt lat="44.8534009" lon="7.2362689"><ele>1172.0</ele><time>2026-04-07T14:16:58.711Z</time></trkpt><trkpt lat="44.8533343" lon="7.2362693"><ele>1172.0</ele><time>2026-04-07T14:16:59.712Z</time></trkpt><trkpt lat="44.8532688" lon="7.2362677"><ele>1171.9999999999998</ele><time>2026-04-07T14:17:00.712Z</time></trkpt><trkpt lat="44.8532041" lon="7.2362592"><ele>1172.0</ele><time>2026-04-07T14:17:01.712Z</time></trkpt><trkpt lat="44.8530815" lon="7.2362564"><ele>1170.0</ele><time>2026-04-07T14:17:03.712Z</time></trkpt><trkpt lat="44.8529747" lon="7.2362784"><ele>1168.0</ele><time>2026-04-07T14:17:05.712Z</time></trkpt><trkpt lat="44.8528996" lon="7.2362726"><ele>1166.0</ele><time>2026-04-07T14:17:07.712Z</time></trkpt><trkpt lat="44.8528478" lon="7.2362112"><ele>1164.0</ele><time>2026-04-07T14:17:09.712Z</time></trkpt><trkpt lat="44.8528262" lon="7.236088"><ele>1162.0</ele><time>2026-04-07T14:17:11.712Z</time></trkpt><trkpt lat="44.8528219" lon="7.2359171"><ele>1162.0</ele><time>2026-04-07T14:17:13.712Z</time></trkpt><trkpt lat="44.8528345" lon="7.2358299"><ele>1162.0</ele><time>2026-04-07T14:17:14.712Z</time></trkpt><trkpt lat="44.8528488" lon="7.2357407"><ele>1162.0</ele><time>2026-04-07T14:17:15.712Z</time></trkpt><trkpt lat="44.8528602" lon="7.2355751"><ele>1162.0</ele><time>2026-04-07T14:17:17.712Z</time></trkpt><trkpt lat="44.8528687" lon="7.2354279"><ele>1162.0</ele><time>2026-04-07T14:17:19.712Z</time></trkpt><trkpt lat="44.8528812" lon="7.2352814"><ele>1159.6</ele><time>2026-04-07T14:17:21.712Z</time></trkpt><trkpt lat="44.8528988" lon="7.2351286"><ele>1157.2</ele><time>2026-04-07T14:17:23.712Z</time></trkpt><trkpt lat="44.8529113" lon="7.2349521"><ele>1154.8</ele><time>2026-04-07T14:17:25.712Z</time></trkpt><trkpt lat="44.8529149" lon="7.2348633"><ele>1152.4</ele><time>2026-04-07T14:17:26.712Z</time></trkpt><trkpt lat="44.8529221" lon="7.2347745"><ele>1150.0</ele><time>2026-04-07T14:17:27.712Z</time></trkpt><trkpt lat="44.8529494" lon="7.2346088"><ele>1148.3333333333333</ele><time>2026-04-07T14:17:29.713Z</time></trkpt><trkpt lat="44.8529534" lon="7.2344731"><ele>1146.6666666666665</ele><time>2026-04-07T14:17:31.713Z</time></trkpt><trkpt lat="44.8529749" lon="7.2343776"><ele>1145.0</ele><time>2026-04-07T14:17:33.713Z</time></trkpt><trkpt lat="44.8530373" lon="7.2342987"><ele>1143.3333333333333</ele><time>2026-04-07T14:17:35.713Z</time></trkpt><trkpt lat="44.8530779" lon="7.2341928"><ele>1141.6666666666667</ele><time>2026-04-07T14:17:37.712Z</time></trkpt><trkpt lat="44.8530424" lon="7.2340781"><ele>1140.0</ele><time>2026-04-07T14:17:39.713Z</time></trkpt><trkpt lat="44.852944" lon="7.2340113"><ele>1135.5</ele><time>2026-04-07T14:17:41.713Z</time></trkpt><trkpt lat="44.8528374" lon="7.2339633"><ele>1131.0</ele><time>2026-04-07T14:17:43.713Z</time></trkpt><trkpt lat="44.852731" lon="7.2338899"><ele>1126.5</ele><time>2026-04-07T14:17:45.713Z</time></trkpt><trkpt lat="44.8526314" lon="7.2338225"><ele>1122.0</ele><time>2026-04-07T14:17:47.713Z</time></trkpt><trkpt lat="44.8525246" lon="7.2337667"><ele>1121.5</ele><time>2026-04-07T14:17:49.713Z</time></trkpt><trkpt lat="44.8524242" lon="7.2337129"><ele>1121.0</ele><time>2026-04-07T14:17:51.713Z</time></trkpt><trkpt lat="44.8523222" lon="7.2336503"><ele>1120.5</ele><time>2026-04-07T14:17:53.713Z</time></trkpt><trkpt lat="44.8522216" lon="7.2335862"><ele>1120.0</ele><time>2026-04-07T14:17:55.713Z</time></trkpt><trkpt lat="44.8521126" lon="7.2334997"><ele>1120.0</ele><time>2026-04-07T14:17:57.713Z</time></trkpt><trkpt lat="44.8520344" lon="7.2333778"><ele>1120.0</ele><time>2026-04-07T14:17:59.713Z</time></trkpt><trkpt lat="44.8519674" lon="7.2332857"><ele>1120.0</ele><time>2026-04-07T14:18:01.713Z</time></trkpt><trkpt lat="44.8518772" lon="7.2332739"><ele>1120.0</ele><time>2026-04-07T14:18:03.713Z</time></trkpt><trkpt lat="44.8517812" lon="7.2333232"><ele>1120.0</ele><time>2026-04-07T14:18:05.713Z</time></trkpt><trkpt lat="44.8516826" lon="7.2333636"><ele>1118.8333333333333</ele><time>2026-04-07T14:18:07.713Z</time></trkpt><trkpt lat="44.8515887" lon="7.2333523"><ele>1117.6666666666665</ele><time>2026-04-07T14:18:09.713Z</time></trkpt><trkpt lat="44.8515342" lon="7.2332413"><ele>1116.5</ele><time>2026-04-07T14:18:11.713Z</time></trkpt><trkpt lat="44.8515031" lon="7.2331578"><ele>1115.3333333333333</ele><time>2026-04-07T14:18:12.713Z</time></trkpt><trkpt lat="44.8514632" lon="7.2330684"><ele>1114.1666666666667</ele><time>2026-04-07T14:18:13.713Z</time></trkpt><trkpt lat="44.851425" lon="7.2329895"><ele>1113.0</ele><time>2026-04-07T14:18:14.713Z</time></trkpt><trkpt lat="44.8513533" lon="7.23286"><ele>1109.0</ele><time>2026-04-07T14:18:16.713Z</time></trkpt><trkpt lat="44.8512817" lon="7.2327223"><ele>1105.0</ele><time>2026-04-07T14:18:18.713Z</time></trkpt><trkpt lat="44.8512071" lon="7.2326096"><ele>1101.0</ele><time>2026-04-07T14:18:20.713Z</time></trkpt><trkpt lat="44.8511266" lon="7.2325021"><ele>1097.0</ele><time>2026-04-07T14:18:22.713Z</time></trkpt><trkpt lat="44.8510328" lon="7.232397"><ele>1091.0</ele><time>2026-04-07T14:18:24.713Z</time></trkpt><trkpt lat="44.850937" lon="7.2322836"><ele>1085.0</ele><time>2026-04-07T14:18:26.713Z</time></trkpt><trkpt lat="44.8508443" lon="7.2321745"><ele>1079.0</ele><time>2026-04-07T14:18:28.713Z</time></trkpt><trkpt lat="44.8507581" lon="7.232072"><ele>1073.0</ele><time>2026-04-07T14:18:30.713Z</time></trkpt><trkpt lat="44.8506818" lon="7.2319281"><ele>1073.0</ele><time>2026-04-07T14:18:32.713Z</time></trkpt><trkpt lat="44.8506447" lon="7.2318537"><ele>1073.0</ele><time>2026-04-07T14:18:33.713Z</time></trkpt><trkpt lat="44.8506029" lon="7.2317706"><ele>1073.0</ele><time>2026-04-07T14:18:34.713Z</time></trkpt><trkpt lat="44.85055" lon="7.231671"><ele>1073.0</ele><time>2026-04-07T14:18:36.713Z</time></trkpt><trkpt lat="44.8505111" lon="7.2315931"><ele>1073.0</ele><time>2026-04-07T14:18:38.713Z</time></trkpt><trkpt lat="44.8504683" lon="7.2315245"><ele>1073.0</ele><time>2026-04-07T14:18:41.713Z</time></trkpt><trkpt lat="44.8503913" lon="7.2315027"><ele>1073.0</ele><time>2026-04-07T14:18:43.713Z</time></trkpt><trkpt lat="44.8502657" lon="7.2314817"><ele>1073.6</ele><time>2026-04-07T14:18:45.713Z</time></trkpt><trkpt lat="44.8501936" lon="7.2314709"><ele>1074.1999999999998</ele><time>2026-04-07T14:18:46.713Z</time></trkpt><trkpt lat="44.8501078" lon="7.2314636"><ele>1074.8</ele><time>2026-04-07T14:18:47.712Z</time></trkpt><trkpt lat="44.8500085" lon="7.2314673"><ele>1075.3999999999999</ele><time>2026-04-07T14:18:48.713Z</time></trkpt><trkpt lat="44.8499061" lon="7.2314689"><ele>1076.0</ele><time>2026-04-07T14:18:49.713Z</time></trkpt><trkpt lat="44.8498044" lon="7.2314742"><ele>1076.0</ele><time>2026-04-07T14:18:50.713Z</time></trkpt><trkpt lat="44.8497004" lon="7.2314785"><ele>1076.0</ele><time>2026-04-07T14:18:51.713Z</time></trkpt><trkpt lat="44.8496041" lon="7.2314878"><ele>1076.0</ele><time>2026-04-07T14:18:52.713Z</time></trkpt><trkpt lat="44.8495166" lon="7.2315091"><ele>1076.0</ele><time>2026-04-07T14:18:53.713Z</time></trkpt><trkpt lat="44.8494282" lon="7.231554"><ele>1076.0</ele><time>2026-04-07T14:18:54.713Z</time></trkpt><trkpt lat="44.8493547" lon="7.2316207"><ele>1073.8</ele><time>2026-04-07T14:18:55.713Z</time></trkpt><trkpt lat="44.8492874" lon="7.2317191"><ele>1071.6</ele><time>2026-04-07T14:18:56.713Z</time></trkpt><trkpt lat="44.8492284" lon="7.2318359"><ele>1069.4</ele><time>2026-04-07T14:18:57.713Z</time></trkpt><trkpt lat="44.8491833" lon="7.2319699"><ele>1067.2</ele><time>2026-04-07T14:18:58.713Z</time></trkpt><trkpt lat="44.8491569" lon="7.232115"><ele>1065.0</ele><time>2026-04-07T14:18:59.713Z</time></trkpt><trkpt lat="44.8491514" lon="7.2322699"><ele>1065.25</ele><time>2026-04-07T14:19:00.713Z</time></trkpt><trkpt lat="44.8491516" lon="7.2324309"><ele>1065.5</ele><time>2026-04-07T14:19:01.713Z</time></trkpt><trkpt lat="44.8491434" lon="7.2325959"><ele>1065.75</ele><time>2026-04-07T14:19:02.713Z</time></trkpt><trkpt lat="44.8491336" lon="7.2327607"><ele>1066.0</ele><time>2026-04-07T14:19:03.713Z</time></trkpt><trkpt lat="44.8491199" lon="7.2329236"><ele>1066.0</ele><time>2026-04-07T14:19:04.713Z</time></trkpt><trkpt lat="44.8490993" lon="7.2330793"><ele>1066.0</ele><time>2026-04-07T14:19:05.713Z</time></trkpt><trkpt lat="44.8490875" lon="7.2332396"><ele>1066.0</ele><time>2026-04-07T14:19:06.713Z</time></trkpt><trkpt lat="44.849088" lon="7.2333999"><ele>1066.0</ele><time>2026-04-07T14:19:07.713Z</time></trkpt><trkpt lat="44.8490997" lon="7.2335549"><ele>1066.6</ele><time>2026-04-07T14:19:08.713Z</time></trkpt><trkpt lat="44.849106" lon="7.2337072"><ele>1067.1999999999998</ele><time>2026-04-07T14:19:09.713Z</time></trkpt><trkpt lat="44.8491024" lon="7.2338564"><ele>1067.8000000000002</ele><time>2026-04-07T14:19:10.712Z</time></trkpt><trkpt lat="44.8490903" lon="7.2340113"><ele>1068.4</ele><time>2026-04-07T14:19:11.713Z</time></trkpt><trkpt lat="44.8490696" lon="7.2341635"><ele>1069.0</ele><time>2026-04-07T14:19:12.712Z</time></trkpt><trkpt lat="44.8490488" lon="7.2343157"><ele>1070.0</ele><time>2026-04-07T14:19:13.713Z</time></trkpt><trkpt lat="44.8490309" lon="7.234459"><ele>1071.0</ele><time>2026-04-07T14:19:14.713Z</time></trkpt><trkpt lat="44.8490162" lon="7.234591"><ele>1072.0</ele><time>2026-04-07T14:19:15.713Z</time></trkpt><trkpt lat="44.849" lon="7.2347168"><ele>1073.0</ele><time>2026-04-07T14:19:16.713Z</time></trkpt><trkpt lat="44.8489881" lon="7.2348263"><ele>1074.0</ele><time>2026-04-07T14:19:17.712Z</time></trkpt><trkpt lat="44.8489892" lon="7.2349249"><ele>1075.0</ele><time>2026-04-07T14:19:18.713Z</time></trkpt><trkpt lat="44.8490085" lon="7.2350235"><ele>1075.1666666666665</ele><time>2026-04-07T14:19:19.713Z</time></trkpt><trkpt lat="44.8490489" lon="7.2351247"><ele>1075.3333333333333</ele><time>2026-04-07T14:19:20.713Z</time></trkpt><trkpt lat="44.8491145" lon="7.2352224"><ele>1075.5</ele><time>2026-04-07T14:19:21.713Z</time></trkpt><trkpt lat="44.849177" lon="7.235311"><ele>1075.6666666666667</ele><time>2026-04-07T14:19:22.713Z</time></trkpt><trkpt lat="44.8492202" lon="7.2354036"><ele>1075.8333333333335</ele><time>2026-04-07T14:19:23.713Z</time></trkpt><trkpt lat="44.84924" lon="7.2354963"><ele>1076.0</ele><time>2026-04-07T14:19:24.713Z</time></trkpt><trkpt lat="44.8491764" lon="7.2356202"><ele>1075.3999999999999</ele><time>2026-04-07T14:19:26.713Z</time></trkpt><trkpt lat="44.8490854" lon="7.2356826"><ele>1074.8</ele><time>2026-04-07T14:19:27.713Z</time></trkpt><trkpt lat="44.8489915" lon="7.2357427"><ele>1074.1999999999998</ele><time>2026-04-07T14:19:28.713Z</time></trkpt><trkpt lat="44.8489047" lon="7.2357883"><ele>1073.6</ele><time>2026-04-07T14:19:29.713Z</time></trkpt><trkpt lat="44.8488365" lon="7.2358332"><ele>1073.0</ele><time>2026-04-07T14:19:30.713Z</time></trkpt><trkpt lat="44.8487494" lon="7.2359299"><ele>1073.0</ele><time>2026-04-07T14:19:32.713Z</time></trkpt><trkpt lat="44.8486843" lon="7.2360507"><ele>1073.0</ele><time>2026-04-07T14:19:34.713Z</time></trkpt><trkpt lat="44.8486268" lon="7.2361541"><ele>1073.0</ele><time>2026-04-07T14:19:36.713Z</time></trkpt><trkpt lat="44.8485799" lon="7.2362631"><ele>1073.0</ele><time>2026-04-07T14:19:38.713Z</time></trkpt><trkpt lat="44.8485476" lon="7.2363493"><ele>1073.0</ele><time>2026-04-07T14:19:40.713Z</time></trkpt><trkpt lat="44.8485149" lon="7.2364357"><ele>1073.0</ele><time>2026-04-07T14:19:43.713Z</time></trkpt><trkpt lat="44.8485013" lon="7.236523"><ele>1075.3333333333335</ele><time>2026-04-07T14:19:45.713Z</time></trkpt><trkpt lat="44.8484856" lon="7.2366221"><ele>1077.6666666666667</ele><time>2026-04-07T14:19:47.713Z</time></trkpt><trkpt lat="44.8484474" lon="7.2367292"><ele>1080.0</ele><time>2026-04-07T14:19:50.713Z</time></trkpt><trkpt lat="44.8483875" lon="7.2367925"><ele>1082.3333333333333</ele><time>2026-04-07T14:19:53.713Z</time></trkpt><trkpt lat="44.8482975" lon="7.2368264"><ele>1084.6666666666665</ele><time>2026-04-07T14:19:56.713Z</time></trkpt><trkpt lat="44.8482188" lon="7.236857"><ele>1087.0</ele><time>2026-04-07T14:19:58.713Z</time></trkpt><trkpt lat="44.8481178" lon="7.2368926"><ele>1080.4</ele><time>2026-04-07T14:20:00.713Z</time></trkpt><trkpt lat="44.8480086" lon="7.2369548"><ele>1073.8000000000002</ele><time>2026-04-07T14:20:02.713Z</time></trkpt><trkpt lat="44.8479123" lon="7.2370212"><ele>1067.2</ele><time>2026-04-07T14:20:04.713Z</time></trkpt><trkpt lat="44.847834" lon="7.2370893"><ele>1060.6000000000001</ele><time>2026-04-07T14:20:06.713Z</time></trkpt><trkpt lat="44.8477635" lon="7.2371592"><ele>1054.0</ele><time>2026-04-07T14:20:08.713Z</time></trkpt><trkpt lat="44.8476833" lon="7.2372433"><ele>1050.2</ele><time>2026-04-07T14:20:10.713Z</time></trkpt><trkpt lat="44.8476067" lon="7.2373292"><ele>1046.4</ele><time>2026-04-07T14:20:12.713Z</time></trkpt><trkpt lat="44.8475336" lon="7.2374207"><ele>1042.6</ele><time>2026-04-07T14:20:14.713Z</time></trkpt><trkpt lat="44.8474435" lon="7.2375031"><ele>1038.8</ele><time>2026-04-07T14:20:16.713Z</time></trkpt><trkpt lat="44.847389" lon="7.2375498"><ele>1035.0</ele><time>2026-04-07T14:20:17.713Z</time></trkpt><trkpt lat="44.8472887" lon="7.2376456"><ele>1035.0</ele><time>2026-04-07T14:20:19.713Z</time></trkpt><trkpt lat="44.8472004" lon="7.2377446"><ele>1035.0</ele><time>2026-04-07T14:20:21.713Z</time></trkpt><trkpt lat="44.8471107" lon="7.237866"><ele>1035.0</ele><time>2026-04-07T14:20:23.713Z</time></trkpt><trkpt lat="44.8470594" lon="7.237925"><ele>1035.0</ele><time>2026-04-07T14:20:24.713Z</time></trkpt><trkpt lat="44.8470065" lon="7.237986"><ele>1035.0</ele><time>2026-04-07T14:20:25.713Z</time></trkpt><trkpt lat="44.8469554" lon="7.2380552"><ele>1035.0</ele><time>2026-04-07T14:20:26.713Z</time></trkpt><trkpt lat="44.8469009" lon="7.2381249"><ele>1036.2</ele><time>2026-04-07T14:20:27.713Z</time></trkpt><trkpt lat="44.8468381" lon="7.2381869"><ele>1037.4</ele><time>2026-04-07T14:20:28.713Z</time></trkpt><trkpt lat="44.8467819" lon="7.2382469"><ele>1038.6</ele><time>2026-04-07T14:20:29.713Z</time></trkpt><trkpt lat="44.8466803" lon="7.2383378"><ele>1039.8</ele><time>2026-04-07T14:20:31.713Z</time></trkpt><trkpt lat="44.8465998" lon="7.2384178"><ele>1041.0</ele><time>2026-04-07T14:20:33.713Z</time></trkpt><trkpt lat="44.8465231" lon="7.2384769"><ele>1037.3999999999999</ele><time>2026-04-07T14:20:35.713Z</time></trkpt><trkpt lat="44.8464303" lon="7.2385459"><ele>1033.8</ele><time>2026-04-07T14:20:37.713Z</time></trkpt><trkpt lat="44.846333" lon="7.2386112"><ele>1030.1999999999998</ele><time>2026-04-07T14:20:39.713Z</time></trkpt><trkpt lat="44.8462297" lon="7.2386465"><ele>1026.6</ele><time>2026-04-07T14:20:41.713Z</time></trkpt><trkpt lat="44.8461295" lon="7.2386729"><ele>1023.0</ele><time>2026-04-07T14:20:43.713Z</time></trkpt><trkpt lat="44.8460277" lon="7.2387255"><ele>1019.8</ele><time>2026-04-07T14:20:45.713Z</time></trkpt><trkpt lat="44.8459121" lon="7.2388021"><ele>1016.5999999999999</ele><time>2026-04-07T14:20:47.713Z</time></trkpt><trkpt lat="44.8457857" lon="7.238876"><ele>1013.4000000000001</ele><time>2026-04-07T14:20:49.712Z</time></trkpt><trkpt lat="44.8457141" lon="7.2389244"><ele>1010.2</ele><time>2026-04-07T14:20:50.713Z</time></trkpt><trkpt lat="44.8456395" lon="7.2389771"><ele>1007.0</ele><time>2026-04-07T14:20:51.713Z</time></trkpt><trkpt lat="44.8455657" lon="7.2390319"><ele>1007.0000000000001</ele><time>2026-04-07T14:20:52.713Z</time></trkpt><trkpt lat="44.8454972" lon="7.2390847"><ele>1007.0</ele><time>2026-04-07T14:20:53.713Z</time></trkpt><trkpt lat="44.8454272" lon="7.2391328"><ele>1007.0</ele><time>2026-04-07T14:20:54.713Z</time></trkpt><trkpt lat="44.8453593" lon="7.2391629"><ele>1007.0</ele><time>2026-04-07T14:20:55.713Z</time></trkpt><trkpt lat="44.8452909" lon="7.2391777"><ele>1007.0000000000001</ele><time>2026-04-07T14:20:56.713Z</time></trkpt><trkpt lat="44.8452201" lon="7.2391973"><ele>1007.0</ele><time>2026-04-07T14:20:57.713Z</time></trkpt><trkpt lat="44.8450957" lon="7.239221"><ele>1005.0</ele><time>2026-04-07T14:20:59.713Z</time></trkpt><trkpt lat="44.8449941" lon="7.23924"><ele>1003.0</ele><time>2026-04-07T14:21:01.713Z</time></trkpt><trkpt lat="44.8448837" lon="7.2392485"><ele>1001.0</ele><time>2026-04-07T14:21:03.713Z</time></trkpt><trkpt lat="44.8448058" lon="7.2392786"><ele>999.0</ele><time>2026-04-07T14:21:04.713Z</time></trkpt><trkpt lat="44.8447278" lon="7.2393377"><ele>997.0</ele><time>2026-04-07T14:21:05.713Z</time></trkpt><trkpt lat="44.8446473" lon="7.2394186"><ele>997.0</ele><time>2026-04-07T14:21:06.713Z</time></trkpt><trkpt lat="44.844575" lon="7.2395134"><ele>997.0</ele><time>2026-04-07T14:21:07.712Z</time></trkpt><trkpt lat="44.8445165" lon="7.239621"><ele>997.0</ele><time>2026-04-07T14:21:08.713Z</time></trkpt><trkpt lat="44.8444557" lon="7.2397372"><ele>997.0</ele><time>2026-04-07T14:21:09.713Z</time></trkpt><trkpt lat="44.8444001" lon="7.2398559"><ele>997.0</ele><time>2026-04-07T14:21:10.713Z</time></trkpt><trkpt lat="44.8443529" lon="7.2399833"><ele>996.8</ele><time>2026-04-07T14:21:11.713Z</time></trkpt><trkpt lat="44.8443191" lon="7.2401132"><ele>996.6</ele><time>2026-04-07T14:21:12.713Z</time></trkpt><trkpt lat="44.8442861" lon="7.2402423"><ele>996.3999999999999</ele><time>2026-04-07T14:21:13.713Z</time></trkpt><trkpt lat="44.8442591" lon="7.2403715"><ele>996.1999999999999</ele><time>2026-04-07T14:21:14.713Z</time></trkpt><trkpt lat="44.8442398" lon="7.2404981"><ele>996.0</ele><time>2026-04-07T14:21:15.713Z</time></trkpt><trkpt lat="44.8442218" lon="7.2406269"><ele>992.8</ele><time>2026-04-07T14:21:16.713Z</time></trkpt><trkpt lat="44.8441986" lon="7.2407444"><ele>989.5999999999999</ele><time>2026-04-07T14:21:17.713Z</time></trkpt><trkpt lat="44.8441655" lon="7.2408551"><ele>986.4</ele><time>2026-04-07T14:21:18.713Z</time></trkpt><trkpt lat="44.8441159" lon="7.2409569"><ele>983.2</ele><time>2026-04-07T14:21:19.713Z</time></trkpt><trkpt lat="44.8440437" lon="7.2410415"><ele>980.0</ele><time>2026-04-07T14:21:20.713Z</time></trkpt><trkpt lat="44.8439533" lon="7.2411185"><ele>980.0</ele><time>2026-04-07T14:21:21.713Z</time></trkpt><trkpt lat="44.8438628" lon="7.2411952"><ele>980.0</ele><time>2026-04-07T14:21:22.713Z</time></trkpt><trkpt lat="44.8437691" lon="7.2412648"><ele>980.0</ele><time>2026-04-07T14:21:23.713Z</time></trkpt><trkpt lat="44.8436736" lon="7.2413191"><ele>980.0</ele><time>2026-04-07T14:21:24.713Z</time></trkpt><trkpt lat="44.8435879" lon="7.2413593"><ele>980.0</ele><time>2026-04-07T14:21:25.713Z</time></trkpt><trkpt lat="44.8434973" lon="7.2413989"><ele>977.5</ele><time>2026-04-07T14:21:26.713Z</time></trkpt><trkpt lat="44.8433927" lon="7.2414458"><ele>975.0</ele><time>2026-04-07T14:21:27.713Z</time></trkpt><trkpt lat="44.8432803" lon="7.2414981"><ele>972.5</ele><time>2026-04-07T14:21:28.713Z</time></trkpt><trkpt lat="44.8431673" lon="7.241557"><ele>970.0</ele><time>2026-04-07T14:21:29.712Z</time></trkpt><trkpt lat="44.8430598" lon="7.2416229"><ele>969.6</ele><time>2026-04-07T14:21:30.713Z</time></trkpt><trkpt lat="44.8429636" lon="7.2417014"><ele>969.2</ele><time>2026-04-07T14:21:31.713Z</time></trkpt><trkpt lat="44.8428788" lon="7.2417915"><ele>968.8</ele><time>2026-04-07T14:21:32.713Z</time></trkpt><trkpt lat="44.8427977" lon="7.2418743"><ele>968.4</ele><time>2026-04-07T14:21:33.713Z</time></trkpt><trkpt lat="44.8427067" lon="7.2419322"><ele>968.0</ele><time>2026-04-07T14:21:34.713Z</time></trkpt><trkpt lat="44.8426117" lon="7.241966"><ele>966.8</ele><time>2026-04-07T14:21:35.713Z</time></trkpt><trkpt lat="44.8425103" lon="7.2419735"><ele>965.5999999999999</ele><time>2026-04-07T14:21:36.713Z</time></trkpt><trkpt lat="44.8424052" lon="7.2419669"><ele>964.4000000000001</ele><time>2026-04-07T14:21:37.713Z</time></trkpt><trkpt lat="44.8423001" lon="7.2419543"><ele>963.2</ele><time>2026-04-07T14:21:38.713Z</time></trkpt><trkpt lat="44.8422013" lon="7.2419434"><ele>962.0</ele><time>2026-04-07T14:21:39.713Z</time></trkpt><trkpt lat="44.8421117" lon="7.2419343"><ele>962.0000000000001</ele><time>2026-04-07T14:21:40.713Z</time></trkpt><trkpt lat="44.8420237" lon="7.2419208"><ele>962.0</ele><time>2026-04-07T14:21:41.713Z</time></trkpt><trkpt lat="44.84194" lon="7.2418949"><ele>962.0</ele><time>2026-04-07T14:21:42.713Z</time></trkpt><trkpt lat="44.8418567" lon="7.2418679"><ele>962.0</ele><time>2026-04-07T14:21:43.713Z</time></trkpt><trkpt lat="44.8417767" lon="7.2418156"><ele>962.0000000000001</ele><time>2026-04-07T14:21:44.713Z</time></trkpt><trkpt lat="44.8417178" lon="7.2417413"><ele>962.0</ele><time>2026-04-07T14:21:45.713Z</time></trkpt><trkpt lat="44.8416712" lon="7.2416584"><ele>960.8333333333334</ele><time>2026-04-07T14:21:46.713Z</time></trkpt><trkpt lat="44.841639" lon="7.2415595"><ele>959.6666666666667</ele><time>2026-04-07T14:21:47.713Z</time></trkpt><trkpt lat="44.841621" lon="7.2414463"><ele>958.5</ele><time>2026-04-07T14:21:48.712Z</time></trkpt><trkpt lat="44.8416139" lon="7.2413284"><ele>957.3333333333333</ele><time>2026-04-07T14:21:49.713Z</time></trkpt><trkpt lat="44.8416233" lon="7.2411941"><ele>956.1666666666666</ele><time>2026-04-07T14:21:50.713Z</time></trkpt><trkpt lat="44.8416439" lon="7.2410655"><ele>955.0</ele><time>2026-04-07T14:21:51.713Z</time></trkpt><trkpt lat="44.8416667" lon="7.2409522"><ele>954.4999999999999</ele><time>2026-04-07T14:21:52.713Z</time></trkpt><trkpt lat="44.8417058" lon="7.2408451"><ele>954.0</ele><time>2026-04-07T14:21:53.713Z</time></trkpt><trkpt lat="44.8417505" lon="7.2407633"><ele>953.5</ele><time>2026-04-07T14:21:54.713Z</time></trkpt><trkpt lat="44.841806" lon="7.2407067"><ele>953.0</ele><time>2026-04-07T14:21:55.713Z</time></trkpt><trkpt lat="44.8418799" lon="7.2406511"><ele>952.4999999999999</ele><time>2026-04-07T14:21:57.713Z</time></trkpt><trkpt lat="44.8419674" lon="7.2406134"><ele>952.0</ele><time>2026-04-07T14:21:59.713Z</time></trkpt><trkpt lat="44.8419712" lon="7.2405118"><ele>951.9999999999999</ele><time>2026-04-07T14:22:02.713Z</time></trkpt><trkpt lat="44.8418813" lon="7.240463"><ele>952.0</ele><time>2026-04-07T14:22:04.713Z</time></trkpt><trkpt lat="44.8418152" lon="7.2404674"><ele>952.0</ele><time>2026-04-07T14:22:05.713Z</time></trkpt><trkpt lat="44.8417421" lon="7.2404963"><ele>952.0</ele><time>2026-04-07T14:22:06.713Z</time></trkpt><trkpt lat="44.8416614" lon="7.2405527"><ele>951.9999999999999</ele><time>2026-04-07T14:22:07.713Z</time></trkpt><trkpt lat="44.84158" lon="7.2406388"><ele>952.0</ele><time>2026-04-07T14:22:08.713Z</time></trkpt><trkpt lat="44.8415081" lon="7.2407551"><ele>952.0</ele><time>2026-04-07T14:22:09.713Z</time></trkpt><trkpt lat="44.8414403" lon="7.2408852"><ele>952.0</ele><time>2026-04-07T14:22:10.713Z</time></trkpt><trkpt lat="44.841378" lon="7.2410096"><ele>952.0</ele><time>2026-04-07T14:22:11.713Z</time></trkpt><trkpt lat="44.8413365" lon="7.2411342"><ele>952.0</ele><time>2026-04-07T14:22:12.713Z</time></trkpt><trkpt lat="44.8412982" lon="7.2412564"><ele>952.0</ele><time>2026-04-07T14:22:13.713Z</time></trkpt><trkpt lat="44.8412624" lon="7.2413743"><ele>952.4999999999999</ele><time>2026-04-07T14:22:14.713Z</time></trkpt><trkpt lat="44.8412405" lon="7.2414819"><ele>953.0</ele><time>2026-04-07T14:22:15.713Z</time></trkpt><trkpt lat="44.8412248" lon="7.2415777"><ele>953.5</ele><time>2026-04-07T14:22:16.713Z</time></trkpt><trkpt lat="44.8412055" lon="7.241665"><ele>954.0</ele><time>2026-04-07T14:22:17.713Z</time></trkpt><trkpt lat="44.8411677" lon="7.2417922"><ele>954.4999999999999</ele><time>2026-04-07T14:22:19.713Z</time></trkpt><trkpt lat="44.8411469" lon="7.2419055"><ele>955.0</ele><time>2026-04-07T14:22:21.713Z</time></trkpt><trkpt lat="44.8411377" lon="7.242032"><ele>955.0</ele><time>2026-04-07T14:22:23.713Z</time></trkpt><trkpt lat="44.841149" lon="7.2421697"><ele>955.0</ele><time>2026-04-07T14:22:25.713Z</time></trkpt><trkpt lat="44.8411883" lon="7.2423296"><ele>955.0</ele><time>2026-04-07T14:22:27.713Z</time></trkpt><trkpt lat="44.8412158" lon="7.2424104"><ele>955.0</ele><time>2026-04-07T14:22:28.713Z</time></trkpt><trkpt lat="44.8412756" lon="7.2425625"><ele>955.0</ele><time>2026-04-07T14:22:30.713Z</time></trkpt><trkpt lat="44.8413133" lon="7.2426397"><ele>954.9999999999999</ele><time>2026-04-07T14:22:31.713Z</time></trkpt><trkpt lat="44.8413547" lon="7.242718"><ele>955.0</ele><time>2026-04-07T14:22:32.713Z</time></trkpt><trkpt lat="44.8413946" lon="7.2428002"><ele>955.0</ele><time>2026-04-07T14:22:33.713Z</time></trkpt><trkpt lat="44.8414375" lon="7.2428862"><ele>955.0</ele><time>2026-04-07T14:22:34.713Z</time></trkpt><trkpt lat="44.8414746" lon="7.2429685"><ele>954.9999999999999</ele><time>2026-04-07T14:22:35.713Z</time></trkpt><trkpt lat="44.841511" lon="7.2430488"><ele>955.0</ele><time>2026-04-07T14:22:36.713Z</time></trkpt><trkpt lat="44.8415751" lon="7.2431884"><ele>953.4</ele><time>2026-04-07T14:22:38.713Z</time></trkpt><trkpt lat="44.8416253" lon="7.2433249"><ele>951.8</ele><time>2026-04-07T14:22:40.713Z</time></trkpt><trkpt lat="44.8416724" lon="7.2434426"><ele>950.2</ele><time>2026-04-07T14:22:42.713Z</time></trkpt><trkpt lat="44.841746" lon="7.2435756"><ele>948.6</ele><time>2026-04-07T14:22:44.713Z</time></trkpt><trkpt lat="44.8417872" lon="7.2436451"><ele>947.0</ele><time>2026-04-07T14:22:45.712Z</time></trkpt><trkpt lat="44.841881" lon="7.2437814"><ele>947.0</ele><time>2026-04-07T14:22:47.713Z</time></trkpt><trkpt lat="44.8419385" lon="7.243839"><ele>946.9999999999999</ele><time>2026-04-07T14:22:48.713Z</time></trkpt><trkpt lat="44.8419939" lon="7.2438915"><ele>947.0</ele><time>2026-04-07T14:22:49.713Z</time></trkpt><trkpt lat="44.8420497" lon="7.2439402"><ele>947.0</ele><time>2026-04-07T14:22:50.713Z</time></trkpt><trkpt lat="44.8421055" lon="7.2439856"><ele>946.9999999999999</ele><time>2026-04-07T14:22:51.713Z</time></trkpt><trkpt lat="44.8421612" lon="7.2440415"><ele>947.0</ele><time>2026-04-07T14:22:52.713Z</time></trkpt><trkpt lat="44.8422168" lon="7.2441045"><ele>947.0</ele><time>2026-04-07T14:22:53.713Z</time></trkpt><trkpt lat="44.842277" lon="7.2441649"><ele>942.4000000000001</ele><time>2026-04-07T14:22:54.713Z</time></trkpt><trkpt lat="44.8423407" lon="7.2442276"><ele>937.8000000000001</ele><time>2026-04-07T14:22:55.713Z</time></trkpt><trkpt lat="44.8423973" lon="7.2442832"><ele>933.2</ele><time>2026-04-07T14:22:56.713Z</time></trkpt><trkpt lat="44.8424961" lon="7.2443824"><ele>928.6</ele><time>2026-04-07T14:22:58.713Z</time></trkpt><trkpt lat="44.8425918" lon="7.2444694"><ele>924.0</ele><time>2026-04-07T14:23:00.713Z</time></trkpt><trkpt lat="44.8426734" lon="7.2445518"><ele>922.6666666666666</ele><time>2026-04-07T14:23:02.713Z</time></trkpt><trkpt lat="44.8427636" lon="7.2445944"><ele>921.3333333333333</ele><time>2026-04-07T14:23:04.713Z</time></trkpt><trkpt lat="44.8428602" lon="7.2445971"><ele>920.0</ele><time>2026-04-07T14:23:06.713Z</time></trkpt><trkpt lat="44.8429385" lon="7.2445565"><ele>918.6666666666666</ele><time>2026-04-07T14:23:08.713Z</time></trkpt><trkpt lat="44.8430073" lon="7.244504"><ele>917.3333333333333</ele><time>2026-04-07T14:23:10.713Z</time></trkpt><trkpt lat="44.8430809" lon="7.2444391"><ele>916.0</ele><time>2026-04-07T14:23:12.713Z</time></trkpt><trkpt lat="44.8431581" lon="7.2443721"><ele>916.0</ele><time>2026-04-07T14:23:14.713Z</time></trkpt><trkpt lat="44.8432326" lon="7.2443127"><ele>915.9999999999999</ele><time>2026-04-07T14:23:16.713Z</time></trkpt><trkpt lat="44.8433201" lon="7.2442529"><ele>915.9999999999999</ele><time>2026-04-07T14:23:18.713Z</time></trkpt><trkpt lat="44.8434146" lon="7.2441856"><ele>916.0</ele><time>2026-04-07T14:23:20.713Z</time></trkpt><trkpt lat="44.8435033" lon="7.244105"><ele>916.0</ele><time>2026-04-07T14:23:22.713Z</time></trkpt><trkpt lat="44.8436029" lon="7.2440753"><ele>910.4</ele><time>2026-04-07T14:23:24.713Z</time></trkpt><trkpt lat="44.8436719" lon="7.2441104"><ele>904.8</ele><time>2026-04-07T14:23:26.713Z</time></trkpt><trkpt lat="44.8436983" lon="7.2442268"><ele>899.1999999999999</ele><time>2026-04-07T14:23:28.713Z</time></trkpt><trkpt lat="44.8437084" lon="7.2443939"><ele>893.5999999999999</ele><time>2026-04-07T14:23:30.713Z</time></trkpt><trkpt lat="44.8437116" lon="7.2445395"><ele>888.0</ele><time>2026-04-07T14:23:32.713Z</time></trkpt><trkpt lat="44.8437461" lon="7.2446502"><ele>888.0</ele><time>2026-04-07T14:23:34.713Z</time></trkpt><trkpt lat="44.8438067" lon="7.2446911"><ele>888.0</ele><time>2026-04-07T14:23:36.713Z</time></trkpt><trkpt lat="44.8438793" lon="7.2446901"><ele>888.0</ele><time>2026-04-07T14:23:38.713Z</time></trkpt><trkpt lat="44.8439476" lon="7.2446504"><ele>888.0</ele><time>2026-04-07T14:23:40.713Z</time></trkpt><trkpt lat="44.8440116" lon="7.2445546"><ele>888.0</ele><time>2026-04-07T14:23:43.713Z</time></trkpt><trkpt lat="44.8440297" lon="7.2444265"><ele>888.0</ele><time>2026-04-07T14:23:45.713Z</time></trkpt><trkpt lat="44.8440434" lon="7.2443199"><ele>888.0</ele><time>2026-04-07T14:23:47.712Z</time></trkpt><trkpt lat="44.844108" lon="7.2442856"><ele>888.0</ele><time>2026-04-07T14:23:50.713Z</time></trkpt><trkpt lat="44.844157" lon="7.2443738"><ele>888.0</ele><time>2026-04-07T14:24:16.712Z</time></trkpt><trkpt lat="44.8441734" lon="7.2444798"><ele>888.0</ele><time>2026-04-07T14:24:19.713Z</time></trkpt><trkpt lat="44.8442049" lon="7.2445708"><ele>888.0</ele><time>2026-04-07T14:24:22.713Z</time></trkpt><trkpt lat="44.8442102" lon="7.2446777"><ele>888.0</ele><time>2026-04-07T14:24:25.713Z</time></trkpt><trkpt lat="44.8442168" lon="7.2447812"><ele>888.0</ele><time>2026-04-07T14:24:27.713Z</time></trkpt><trkpt lat="44.8442437" lon="7.2449134"><ele>886.4</ele><time>2026-04-07T14:24:29.712Z</time></trkpt><trkpt lat="44.8442736" lon="7.2450356"><ele>884.8</ele><time>2026-04-07T14:24:31.713Z</time></trkpt><trkpt lat="44.8443309" lon="7.2451533"><ele>883.2</ele><time>2026-04-07T14:24:33.713Z</time></trkpt><trkpt lat="44.8443918" lon="7.2452773"><ele>881.6</ele><time>2026-04-07T14:24:35.713Z</time></trkpt><trkpt lat="44.8444332" lon="7.2453764"><ele>880.0</ele><time>2026-04-07T14:24:37.713Z</time></trkpt><trkpt lat="44.8444189" lon="7.2454714"><ele>876.8333333333333</ele><time>2026-04-07T14:24:40.713Z</time></trkpt><trkpt lat="44.8443536" lon="7.2455497"><ele>873.6666666666666</ele><time>2026-04-07T14:24:42.713Z</time></trkpt><trkpt lat="44.8442891" lon="7.2456531"><ele>870.5</ele><time>2026-04-07T14:24:44.713Z</time></trkpt><trkpt lat="44.8442302" lon="7.2457459"><ele>867.3333333333333</ele><time>2026-04-07T14:24:46.713Z</time></trkpt><trkpt lat="44.8441654" lon="7.2458287"><ele>864.1666666666666</ele><time>2026-04-07T14:24:48.713Z</time></trkpt><trkpt lat="44.8441044" lon="7.2459134"><ele>861.0</ele><time>2026-04-07T14:24:50.713Z</time></trkpt><trkpt lat="44.8440574" lon="7.2460091"><ele>861.0</ele><time>2026-04-07T14:24:52.713Z</time></trkpt><trkpt lat="44.8440053" lon="7.2460814"><ele>861.0</ele><time>2026-04-07T14:24:54.713Z</time></trkpt><trkpt lat="44.8439347" lon="7.2461444"><ele>861.0</ele><time>2026-04-07T14:24:57.713Z</time></trkpt><trkpt lat="44.8438632" lon="7.2461706"><ele>861.0</ele><time>2026-04-07T14:25:00.712Z</time></trkpt><trkpt lat="44.8437751" lon="7.2461765"><ele>861.0</ele><time>2026-04-07T14:25:03.713Z</time></trkpt><trkpt lat="44.843689" lon="7.2462104"><ele>861.0</ele><time>2026-04-07T14:25:05.713Z</time></trkpt><trkpt lat="44.8436155" lon="7.2462778"><ele>861.0</ele><time>2026-04-07T14:25:07.713Z</time></trkpt><trkpt lat="44.8435394" lon="7.2463515"><ele>861.0</ele><time>2026-04-07T14:25:09.713Z</time></trkpt><trkpt lat="44.8434711" lon="7.2464215"><ele>861.0</ele><time>2026-04-07T14:25:11.713Z</time></trkpt><trkpt lat="44.8433966" lon="7.2464804"><ele>861.0</ele><time>2026-04-07T14:25:13.713Z</time></trkpt><trkpt lat="44.8433186" lon="7.2465282"><ele>861.0</ele><time>2026-04-07T14:25:15.713Z</time></trkpt><trkpt lat="44.8432366" lon="7.2465622"><ele>861.0</ele><time>2026-04-07T14:25:17.713Z</time></trkpt><trkpt lat="44.8431681" lon="7.2465843"><ele>854.4</ele><time>2026-04-07T14:25:19.713Z</time></trkpt><trkpt lat="44.8430864" lon="7.2466173"><ele>847.8</ele><time>2026-04-07T14:25:21.713Z</time></trkpt><trkpt lat="44.8429974" lon="7.2466613"><ele>841.1999999999999</ele><time>2026-04-07T14:25:23.713Z</time></trkpt><trkpt lat="44.8429127" lon="7.2466622"><ele>834.5999999999999</ele><time>2026-04-07T14:25:26.712Z</time></trkpt><trkpt lat="44.8428238" lon="7.2466489"><ele>828.0</ele><time>2026-04-07T14:25:28.712Z</time></trkpt><trkpt lat="44.8427276" lon="7.2466146"><ele>828.0</ele><time>2026-04-07T14:25:30.713Z</time></trkpt><trkpt lat="44.8426375" lon="7.2465754"><ele>828.0</ele><time>2026-04-07T14:25:32.713Z</time></trkpt><trkpt lat="44.8425576" lon="7.2465741"><ele>828.0</ele><time>2026-04-07T14:25:34.713Z</time></trkpt><trkpt lat="44.8424679" lon="7.2465918"><ele>828.0</ele><time>2026-04-07T14:25:36.713Z</time></trkpt><trkpt lat="44.842356" lon="7.2466343"><ele>828.0</ele><time>2026-04-07T14:25:38.713Z</time></trkpt><trkpt lat="44.8422572" lon="7.2466665"><ele>827.2857142857143</ele><time>2026-04-07T14:25:40.713Z</time></trkpt><trkpt lat="44.8421725" lon="7.2466772"><ele>826.5714285714286</ele><time>2026-04-07T14:25:42.713Z</time></trkpt><trkpt lat="44.842093" lon="7.2466782"><ele>825.8571428571429</ele><time>2026-04-07T14:25:44.713Z</time></trkpt><trkpt lat="44.8420185" lon="7.2466763"><ele>825.1428571428571</ele><time>2026-04-07T14:25:47.713Z</time></trkpt><trkpt lat="44.8419618" lon="7.2466281"><ele>824.4285714285714</ele><time>2026-04-07T14:25:58.713Z</time></trkpt><trkpt lat="44.8419009" lon="7.2465842"><ele>823.7142857142858</ele><time>2026-04-07T14:25:59.713Z</time></trkpt><trkpt lat="44.8418403" lon="7.2465338"><ele>823.0</ele><time>2026-04-07T14:26:00.713Z</time></trkpt><trkpt lat="44.8417704" lon="7.2464903"><ele>820.6666666666666</ele><time>2026-04-07T14:26:01.713Z</time></trkpt><trkpt lat="44.8416995" lon="7.2464654"><ele>818.3333333333333</ele><time>2026-04-07T14:26:02.713Z</time></trkpt><trkpt lat="44.8416134" lon="7.2464601"><ele>816.0</ele><time>2026-04-07T14:26:03.713Z</time></trkpt><trkpt lat="44.8415144" lon="7.2464616"><ele>813.6666666666667</ele><time>2026-04-07T14:26:04.713Z</time></trkpt><trkpt lat="44.8414226" lon="7.2464633"><ele>811.3333333333334</ele><time>2026-04-07T14:26:05.713Z</time></trkpt><trkpt lat="44.841339" lon="7.246468"><ele>809.0</ele><time>2026-04-07T14:26:06.713Z</time></trkpt><trkpt lat="44.8412642" lon="7.2464614"><ele>811.3333333333334</ele><time>2026-04-07T14:26:07.713Z</time></trkpt><trkpt lat="44.8411883" lon="7.2464451"><ele>813.6666666666667</ele><time>2026-04-07T14:26:08.713Z</time></trkpt><trkpt lat="44.8411299" lon="7.2464089"><ele>816.0</ele><time>2026-04-07T14:26:09.713Z</time></trkpt><trkpt lat="44.841034" lon="7.2463042"><ele>818.3333333333333</ele><time>2026-04-07T14:26:11.713Z</time></trkpt><trkpt lat="44.8409931" lon="7.2462309"><ele>820.6666666666666</ele><time>2026-04-07T14:26:12.713Z</time></trkpt><trkpt lat="44.8409563" lon="7.2461414"><ele>823.0</ele><time>2026-04-07T14:26:13.713Z</time></trkpt><trkpt lat="44.8409308" lon="7.2460327"><ele>822.9999999999999</ele><time>2026-04-07T14:26:14.712Z</time></trkpt><trkpt lat="44.8409071" lon="7.2459272"><ele>823.0</ele><time>2026-04-07T14:26:15.713Z</time></trkpt><trkpt lat="44.8408833" lon="7.2458323"><ele>823.0</ele><time>2026-04-07T14:26:16.712Z</time></trkpt><trkpt lat="44.8408631" lon="7.2457469"><ele>823.0</ele><time>2026-04-07T14:26:17.712Z</time></trkpt><trkpt lat="44.8408154" lon="7.2456293"><ele>822.9999999999999</ele><time>2026-04-07T14:26:19.713Z</time></trkpt><trkpt lat="44.8407469" lon="7.2456164"><ele>823.0</ele><time>2026-04-07T14:26:21.713Z</time></trkpt><trkpt lat="44.8406579" lon="7.2457329"><ele>822.9999999999999</ele><time>2026-04-07T14:26:23.713Z</time></trkpt><trkpt lat="44.8405937" lon="7.2458299"><ele>823.0</ele><time>2026-04-07T14:26:25.713Z</time></trkpt><trkpt lat="44.8405176" lon="7.2458617"><ele>823.0</ele><time>2026-04-07T14:26:28.713Z</time></trkpt><trkpt lat="44.8404272" lon="7.2458724"><ele>823.0</ele><time>2026-04-07T14:26:30.713Z</time></trkpt><trkpt lat="44.8403529" lon="7.2458986"><ele>822.9999999999999</ele><time>2026-04-07T14:26:31.713Z</time></trkpt><trkpt lat="44.8402659" lon="7.2459265"><ele>823.0</ele><time>2026-04-07T14:26:32.713Z</time></trkpt><trkpt lat="44.8401729" lon="7.245968"><ele>824.5999999999999</ele><time>2026-04-07T14:26:33.712Z</time></trkpt><trkpt lat="44.8400823" lon="7.2460025"><ele>826.1999999999999</ele><time>2026-04-07T14:26:34.713Z</time></trkpt><trkpt lat="44.8399879" lon="7.2460243"><ele>827.8</ele><time>2026-04-07T14:26:35.713Z</time></trkpt><trkpt lat="44.8398957" lon="7.2460394"><ele>829.4</ele><time>2026-04-07T14:26:36.713Z</time></trkpt><trkpt lat="44.8398094" lon="7.2460587"><ele>831.0</ele><time>2026-04-07T14:26:37.713Z</time></trkpt><trkpt lat="44.8397258" lon="7.2460957"><ele>831.0</ele><time>2026-04-07T14:26:38.713Z</time></trkpt><trkpt lat="44.8396435" lon="7.2461427"><ele>831.0</ele><time>2026-04-07T14:26:39.713Z</time></trkpt><trkpt lat="44.8395596" lon="7.2462037"><ele>831.0</ele><time>2026-04-07T14:26:40.713Z</time></trkpt><trkpt lat="44.839481" lon="7.2462655"><ele>831.0</ele><time>2026-04-07T14:26:41.713Z</time></trkpt><trkpt lat="44.8394064" lon="7.2463287"><ele>831.0</ele><time>2026-04-07T14:26:42.713Z</time></trkpt><trkpt lat="44.839323" lon="7.2464009"><ele>831.3333333333334</ele><time>2026-04-07T14:26:43.713Z</time></trkpt><trkpt lat="44.8392409" lon="7.246475"><ele>831.6666666666667</ele><time>2026-04-07T14:26:44.713Z</time></trkpt><trkpt lat="44.8391685" lon="7.2465494"><ele>832.0</ele><time>2026-04-07T14:26:45.713Z</time></trkpt><trkpt lat="44.8391028" lon="7.2466212"><ele>832.3333333333334</ele><time>2026-04-07T14:26:46.713Z</time></trkpt><trkpt lat="44.8390358" lon="7.2466889"><ele>832.6666666666667</ele><time>2026-04-07T14:26:47.713Z</time></trkpt><trkpt lat="44.8389614" lon="7.2467514"><ele>833.0</ele><time>2026-04-07T14:26:48.713Z</time></trkpt><trkpt lat="44.8388937" lon="7.246804"><ele>833.0000000000001</ele><time>2026-04-07T14:26:49.713Z</time></trkpt><trkpt lat="44.838819" lon="7.246856"><ele>833.0</ele><time>2026-04-07T14:26:50.713Z</time></trkpt><trkpt lat="44.8387453" lon="7.2469261"><ele>833.0</ele><time>2026-04-07T14:26:51.713Z</time></trkpt><trkpt lat="44.8386764" lon="7.2470011"><ele>833.0</ele><time>2026-04-07T14:26:52.713Z</time></trkpt><trkpt lat="44.8386097" lon="7.2470774"><ele>833.0000000000001</ele><time>2026-04-07T14:26:53.713Z</time></trkpt><trkpt lat="44.8385422" lon="7.2471568"><ele>833.0</ele><time>2026-04-07T14:26:54.713Z</time></trkpt><trkpt lat="44.8384765" lon="7.2472303"><ele>832.5999999999999</ele><time>2026-04-07T14:26:55.712Z</time></trkpt><trkpt lat="44.8384091" lon="7.2472943"><ele>832.1999999999999</ele><time>2026-04-07T14:26:56.713Z</time></trkpt><trkpt lat="44.8383489" lon="7.2473414"><ele>831.8</ele><time>2026-04-07T14:26:57.713Z</time></trkpt><trkpt lat="44.8382561" lon="7.2473928"><ele>831.4</ele><time>2026-04-07T14:26:59.713Z</time></trkpt><trkpt lat="44.8381697" lon="7.2473731"><ele>831.0</ele><time>2026-04-07T14:27:01.713Z</time></trkpt><trkpt lat="44.8380664" lon="7.2473052"><ele>835.5999999999999</ele><time>2026-04-07T14:27:03.713Z</time></trkpt><trkpt lat="44.8379719" lon="7.2472172"><ele>840.2</ele><time>2026-04-07T14:27:05.713Z</time></trkpt><trkpt lat="44.8378788" lon="7.2471136"><ele>844.8000000000001</ele><time>2026-04-07T14:27:07.713Z</time></trkpt><trkpt lat="44.837801" lon="7.2469751"><ele>849.4000000000001</ele><time>2026-04-07T14:27:09.713Z</time></trkpt><trkpt lat="44.8377601" lon="7.2468784"><ele>854.0</ele><time>2026-04-07T14:27:10.713Z</time></trkpt><trkpt lat="44.8377061" lon="7.2467757"><ele>854.0</ele><time>2026-04-07T14:27:11.713Z</time></trkpt><trkpt lat="44.8376585" lon="7.2466818"><ele>854.0000000000001</ele><time>2026-04-07T14:27:12.713Z</time></trkpt><trkpt lat="44.8376003" lon="7.246584"><ele>854.0000000000001</ele><time>2026-04-07T14:27:13.713Z</time></trkpt><trkpt lat="44.8375328" lon="7.24649"><ele>854.0</ele><time>2026-04-07T14:27:14.713Z</time></trkpt><trkpt lat="44.837457" lon="7.2463974"><ele>854.0</ele><time>2026-04-07T14:27:15.713Z</time></trkpt><trkpt lat="44.8373815" lon="7.2463091"><ele>854.1666666666667</ele><time>2026-04-07T14:27:16.713Z</time></trkpt><trkpt lat="44.8373041" lon="7.2462344"><ele>854.3333333333334</ele><time>2026-04-07T14:27:17.713Z</time></trkpt><trkpt lat="44.837233" lon="7.2461706"><ele>854.5</ele><time>2026-04-07T14:27:18.713Z</time></trkpt><trkpt lat="44.8371626" lon="7.2461209"><ele>854.6666666666667</ele><time>2026-04-07T14:27:19.713Z</time></trkpt><trkpt lat="44.8370971" lon="7.2460964"><ele>854.8333333333334</ele><time>2026-04-07T14:27:20.713Z</time></trkpt><trkpt lat="44.8370219" lon="7.2461013"><ele>855.0</ele><time>2026-04-07T14:27:21.713Z</time></trkpt><trkpt lat="44.8369425" lon="7.2461453"><ele>855.0</ele><time>2026-04-07T14:27:22.713Z</time></trkpt><trkpt lat="44.8368598" lon="7.246207"><ele>855.0</ele><time>2026-04-07T14:27:23.713Z</time></trkpt><trkpt lat="44.8367762" lon="7.2462627"><ele>855.0</ele><time>2026-04-07T14:27:24.713Z</time></trkpt><trkpt lat="44.8366975" lon="7.2463204"><ele>855.0</ele><time>2026-04-07T14:27:25.713Z</time></trkpt><trkpt lat="44.8366225" lon="7.2463805"><ele>855.0</ele><time>2026-04-07T14:27:26.713Z</time></trkpt><trkpt lat="44.8365609" lon="7.2464609"><ele>855.0</ele><time>2026-04-07T14:27:27.713Z</time></trkpt><trkpt lat="44.8365139" lon="7.2465431"><ele>852.5714285714286</ele><time>2026-04-07T14:27:28.713Z</time></trkpt><trkpt lat="44.8364736" lon="7.246625"><ele>850.1428571428571</ele><time>2026-04-07T14:27:29.713Z</time></trkpt><trkpt lat="44.8364327" lon="7.2467048"><ele>847.7142857142857</ele><time>2026-04-07T14:27:30.713Z</time></trkpt><trkpt lat="44.836386" lon="7.2467821"><ele>845.2857142857142</ele><time>2026-04-07T14:27:31.713Z</time></trkpt><trkpt lat="44.8363329" lon="7.2468498"><ele>842.8571428571429</ele><time>2026-04-07T14:27:32.713Z</time></trkpt><trkpt lat="44.8362765" lon="7.2469134"><ele>840.4285714285713</ele><time>2026-04-07T14:27:33.713Z</time></trkpt><trkpt lat="44.8362138" lon="7.2469787"><ele>838.0</ele><time>2026-04-07T14:27:34.713Z</time></trkpt><trkpt lat="44.8361508" lon="7.2470536"><ele>837.9999999999999</ele><time>2026-04-07T14:27:35.713Z</time></trkpt><trkpt lat="44.8360885" lon="7.247135"><ele>838.0</ele><time>2026-04-07T14:27:36.713Z</time></trkpt><trkpt lat="44.8360306" lon="7.2472225"><ele>838.0</ele><time>2026-04-07T14:27:37.713Z</time></trkpt><trkpt lat="44.8359815" lon="7.2472981"><ele>838.0</ele><time>2026-04-07T14:27:38.713Z</time></trkpt><trkpt lat="44.8359342" lon="7.2473619"><ele>837.9999999999999</ele><time>2026-04-07T14:27:39.713Z</time></trkpt><trkpt lat="44.8358478" lon="7.2474348"><ele>838.0</ele><time>2026-04-07T14:27:41.713Z</time></trkpt><trkpt lat="44.8357521" lon="7.2474669"><ele>839.2</ele><time>2026-04-07T14:27:43.713Z</time></trkpt><trkpt lat="44.8356573" lon="7.2474288"><ele>840.4</ele><time>2026-04-07T14:27:45.713Z</time></trkpt><trkpt lat="44.8355566" lon="7.2473553"><ele>841.6</ele><time>2026-04-07T14:27:47.712Z</time></trkpt><trkpt lat="44.8354913" lon="7.2472926"><ele>842.8000000000001</ele><time>2026-04-07T14:27:49.713Z</time></trkpt><trkpt lat="44.8354225" lon="7.2472686"><ele>844.0</ele><time>2026-04-07T14:27:59.713Z</time></trkpt><trkpt lat="44.8353406" lon="7.2473548"><ele>843.9999999999999</ele><time>2026-04-07T14:28:01.713Z</time></trkpt><trkpt lat="44.8352921" lon="7.247434"><ele>844.0</ele><time>2026-04-07T14:28:02.713Z</time></trkpt><trkpt lat="44.8352482" lon="7.2475141"><ele>844.0</ele><time>2026-04-07T14:28:03.713Z</time></trkpt><trkpt lat="44.8351815" lon="7.2476303"><ele>844.0</ele><time>2026-04-07T14:28:05.713Z</time></trkpt><trkpt lat="44.8350963" lon="7.2477289"><ele>843.9999999999999</ele><time>2026-04-07T14:28:07.713Z</time></trkpt><trkpt lat="44.8350489" lon="7.2477889"><ele>844.0</ele><time>2026-04-07T14:28:08.713Z</time></trkpt><trkpt lat="44.8349578" lon="7.2479023"><ele>844.2</ele><time>2026-04-07T14:28:10.713Z</time></trkpt><trkpt lat="44.8348734" lon="7.2480277"><ele>844.4000000000001</ele><time>2026-04-07T14:28:12.713Z</time></trkpt><trkpt lat="44.8347971" lon="7.2481334"><ele>844.6</ele><time>2026-04-07T14:28:14.713Z</time></trkpt><trkpt lat="44.8347184" lon="7.2482239"><ele>844.8</ele><time>2026-04-07T14:28:16.713Z</time></trkpt><trkpt lat="44.8346203" lon="7.2482764"><ele>845.0</ele><time>2026-04-07T14:28:18.712Z</time></trkpt><trkpt lat="44.8345285" lon="7.24836"><ele>843.5</ele><time>2026-04-07T14:28:20.713Z</time></trkpt><trkpt lat="44.8344662" lon="7.248494"><ele>842.0</ele><time>2026-04-07T14:28:22.713Z</time></trkpt><trkpt lat="44.8344107" lon="7.2486397"><ele>840.5</ele><time>2026-04-07T14:28:24.713Z</time></trkpt><trkpt lat="44.8343419" lon="7.2487903"><ele>839.0</ele><time>2026-04-07T14:28:26.712Z</time></trkpt><trkpt lat="44.834278" lon="7.2489131"><ele>836.6666666666667</ele><time>2026-04-07T14:28:28.712Z</time></trkpt><trkpt lat="44.8342196" lon="7.2490188"><ele>834.3333333333334</ele><time>2026-04-07T14:28:30.713Z</time></trkpt><trkpt lat="44.8341689" lon="7.249097"><ele>832.0</ele><time>2026-04-07T14:28:32.713Z</time></trkpt><trkpt lat="44.8341081" lon="7.2490527"><ele>829.6666666666667</ele><time>2026-04-07T14:28:36.713Z</time></trkpt><trkpt lat="44.834083" lon="7.2489385"><ele>827.3333333333334</ele><time>2026-04-07T14:28:38.713Z</time></trkpt><trkpt lat="44.8340594" lon="7.2487825"><ele>825.0</ele><time>2026-04-07T14:28:40.713Z</time></trkpt><trkpt lat="44.8340331" lon="7.2486886"><ele>824.1666666666666</ele><time>2026-04-07T14:28:41.713Z</time></trkpt><trkpt lat="44.8340043" lon="7.2486025"><ele>823.3333333333333</ele><time>2026-04-07T14:28:42.713Z</time></trkpt><trkpt lat="44.8339649" lon="7.2485325"><ele>822.5</ele><time>2026-04-07T14:28:43.713Z</time></trkpt><trkpt lat="44.8338593" lon="7.2484458"><ele>821.6666666666666</ele><time>2026-04-07T14:28:45.713Z</time></trkpt><trkpt lat="44.833789" lon="7.2484123"><ele>820.8333333333333</ele><time>2026-04-07T14:28:46.713Z</time></trkpt><trkpt lat="44.8337135" lon="7.2483781"><ele>820.0</ele><time>2026-04-07T14:28:47.713Z</time></trkpt><trkpt lat="44.8336376" lon="7.2483431"><ele>819.9999999999999</ele><time>2026-04-07T14:28:48.713Z</time></trkpt><trkpt lat="44.8335633" lon="7.2483124"><ele>820.0</ele><time>2026-04-07T14:28:49.713Z</time></trkpt><trkpt lat="44.8334944" lon="7.2482882"><ele>820.0</ele><time>2026-04-07T14:28:50.712Z</time></trkpt><trkpt lat="44.8334322" lon="7.2482666"><ele>820.0</ele><time>2026-04-07T14:28:51.713Z</time></trkpt><trkpt lat="44.833327" lon="7.2482221"><ele>819.9999999999999</ele><time>2026-04-07T14:28:53.713Z</time></trkpt><trkpt lat="44.8332447" lon="7.2481715"><ele>820.0</ele><time>2026-04-07T14:28:55.713Z</time></trkpt><trkpt lat="44.8331691" lon="7.2481347"><ele>816.8</ele><time>2026-04-07T14:28:58.712Z</time></trkpt><trkpt lat="44.8330885" lon="7.2481691"><ele>813.6</ele><time>2026-04-07T14:29:00.713Z</time></trkpt><trkpt lat="44.8330059" lon="7.2482415"><ele>810.4000000000001</ele><time>2026-04-07T14:29:02.712Z</time></trkpt><trkpt lat="44.832912" lon="7.2483327"><ele>807.2</ele><time>2026-04-07T14:29:04.713Z</time></trkpt><trkpt lat="44.8328481" lon="7.2483981"><ele>804.0</ele><time>2026-04-07T14:29:06.713Z</time></trkpt><trkpt lat="44.8327669" lon="7.2483502"><ele>804.0</ele><time>2026-04-07T14:29:09.713Z</time></trkpt><trkpt lat="44.8327135" lon="7.2482213"><ele>804.0</ele><time>2026-04-07T14:29:11.713Z</time></trkpt><trkpt lat="44.8326849" lon="7.248139"><ele>804.0</ele><time>2026-04-07T14:29:12.713Z</time></trkpt><trkpt lat="44.832654" lon="7.2480588"><ele>804.0</ele><time>2026-04-07T14:29:13.713Z</time></trkpt><trkpt lat="44.832626" lon="7.2479759"><ele>804.0</ele><time>2026-04-07T14:29:14.713Z</time></trkpt><trkpt lat="44.8325711" lon="7.2478299"><ele>804.0</ele><time>2026-04-07T14:29:16.713Z</time></trkpt><trkpt lat="44.8325384" lon="7.247743"><ele>801.7142857142857</ele><time>2026-04-07T14:29:18.713Z</time></trkpt><trkpt lat="44.8324499" lon="7.2477994"><ele>799.4285714285714</ele><time>2026-04-07T14:29:35.713Z</time></trkpt><trkpt lat="44.8324014" lon="7.2478828"><ele>797.1428571428571</ele><time>2026-04-07T14:29:36.713Z</time></trkpt><trkpt lat="44.8323645" lon="7.2479651"><ele>794.8571428571429</ele><time>2026-04-07T14:29:37.713Z</time></trkpt><trkpt lat="44.8323283" lon="7.2480464"><ele>792.5714285714287</ele><time>2026-04-07T14:29:38.713Z</time></trkpt><trkpt lat="44.8322936" lon="7.2481261"><ele>790.2857142857143</ele><time>2026-04-07T14:29:39.712Z</time></trkpt><trkpt lat="44.8322622" lon="7.2482073"><ele>788.0</ele><time>2026-04-07T14:29:40.713Z</time></trkpt><trkpt lat="44.8322394" lon="7.2482921"><ele>788.0</ele><time>2026-04-07T14:29:41.713Z</time></trkpt><trkpt lat="44.8322028" lon="7.248429"><ele>788.0</ele><time>2026-04-07T14:29:43.713Z</time></trkpt><trkpt lat="44.8321469" lon="7.2485682"><ele>788.0</ele><time>2026-04-07T14:29:45.713Z</time></trkpt><trkpt lat="44.8320885" lon="7.2487159"><ele>788.0</ele><time>2026-04-07T14:29:47.713Z</time></trkpt><trkpt lat="44.8320446" lon="7.2488634"><ele>788.4</ele><time>2026-04-07T14:29:49.713Z</time></trkpt><trkpt lat="44.83201" lon="7.2489928"><ele>788.8</ele><time>2026-04-07T14:29:51.713Z</time></trkpt><trkpt lat="44.8319805" lon="7.2491024"><ele>789.2</ele><time>2026-04-07T14:29:53.713Z</time></trkpt><trkpt lat="44.8319459" lon="7.2491834"><ele>789.6</ele><time>2026-04-07T14:29:55.713Z</time></trkpt><trkpt lat="44.8318698" lon="7.249301"><ele>790.0</ele><time>2026-04-07T14:29:57.713Z</time></trkpt><trkpt lat="44.831777" lon="7.2494136"><ele>787.0</ele><time>2026-04-07T14:29:59.713Z</time></trkpt><trkpt lat="44.8317223" lon="7.2495545"><ele>784.0</ele><time>2026-04-07T14:30:01.713Z</time></trkpt><trkpt lat="44.8317237" lon="7.2497229"><ele>781.0</ele><time>2026-04-07T14:30:03.713Z</time></trkpt><trkpt lat="44.8317679" lon="7.2498823"><ele>778.0</ele><time>2026-04-07T14:30:05.713Z</time></trkpt><trkpt lat="44.8318096" lon="7.25"><ele>775.0</ele><time>2026-04-07T14:30:07.713Z</time></trkpt><trkpt lat="44.8318049" lon="7.2501237"><ele>772.6</ele><time>2026-04-07T14:30:10.713Z</time></trkpt><trkpt lat="44.8317487" lon="7.2502107"><ele>770.2</ele><time>2026-04-07T14:30:12.713Z</time></trkpt><trkpt lat="44.831651" lon="7.2502868"><ele>767.8</ele><time>2026-04-07T14:30:14.713Z</time></trkpt><trkpt lat="44.8315418" lon="7.2503737"><ele>765.4</ele><time>2026-04-07T14:30:16.713Z</time></trkpt><trkpt lat="44.8314473" lon="7.2504495"><ele>763.0</ele><time>2026-04-07T14:30:18.713Z</time></trkpt><trkpt lat="44.8313609" lon="7.2505047"><ele>763.0</ele><time>2026-04-07T14:30:20.713Z</time></trkpt><trkpt lat="44.8312688" lon="7.2505098"><ele>763.0</ele><time>2026-04-07T14:30:22.713Z</time></trkpt><trkpt lat="44.8311744" lon="7.2505056"><ele>763.0</ele><time>2026-04-07T14:30:24.713Z</time></trkpt><trkpt lat="44.831054" lon="7.250502"><ele>763.0</ele><time>2026-04-07T14:30:26.713Z</time></trkpt><trkpt lat="44.8309892" lon="7.2505099"><ele>763.0</ele><time>2026-04-07T14:30:27.713Z</time></trkpt><trkpt lat="44.8309189" lon="7.2505307"><ele>763.0</ele><time>2026-04-07T14:30:28.713Z</time></trkpt><trkpt lat="44.8308522" lon="7.2505657"><ele>759.8571428571429</ele><time>2026-04-07T14:30:29.713Z</time></trkpt><trkpt lat="44.8307875" lon="7.2506144"><ele>756.7142857142858</ele><time>2026-04-07T14:30:30.713Z</time></trkpt><trkpt lat="44.8307196" lon="7.2506675"><ele>753.5714285714286</ele><time>2026-04-07T14:30:31.712Z</time></trkpt><trkpt lat="44.830655" lon="7.2507207"><ele>750.4285714285714</ele><time>2026-04-07T14:30:32.713Z</time></trkpt><trkpt lat="44.8305927" lon="7.2507719"><ele>747.2857142857143</ele><time>2026-04-07T14:30:33.713Z</time></trkpt><trkpt lat="44.8305309" lon="7.2508125"><ele>744.1428571428571</ele><time>2026-04-07T14:30:34.712Z</time></trkpt><trkpt lat="44.8304637" lon="7.2508532"><ele>741.0</ele><time>2026-04-07T14:30:35.713Z</time></trkpt><trkpt lat="44.8303906" lon="7.250893"><ele>739.8571428571428</ele><time>2026-04-07T14:30:36.713Z</time></trkpt><trkpt lat="44.8303283" lon="7.2509437"><ele>738.7142857142858</ele><time>2026-04-07T14:30:37.713Z</time></trkpt><trkpt lat="44.8302664" lon="7.2509866"><ele>737.5714285714286</ele><time>2026-04-07T14:30:38.713Z</time></trkpt><trkpt lat="44.8302018" lon="7.2510281"><ele>736.4285714285713</ele><time>2026-04-07T14:30:39.713Z</time></trkpt><trkpt lat="44.8301444" lon="7.2510747"><ele>735.2857142857142</ele><time>2026-04-07T14:30:40.713Z</time></trkpt><trkpt lat="44.8300899" lon="7.251135"><ele>734.1428571428571</ele><time>2026-04-07T14:30:41.713Z</time></trkpt><trkpt lat="44.83004" lon="7.2511943"><ele>733.0</ele><time>2026-04-07T14:30:42.713Z</time></trkpt><trkpt lat="44.8299933" lon="7.2512552"><ele>730.5999999999999</ele><time>2026-04-07T14:30:43.713Z</time></trkpt><trkpt lat="44.8299106" lon="7.2513625"><ele>728.1999999999999</ele><time>2026-04-07T14:30:45.713Z</time></trkpt><trkpt lat="44.8298373" lon="7.251428"><ele>725.8</ele><time>2026-04-07T14:30:47.713Z</time></trkpt><trkpt lat="44.8297471" lon="7.2514878"><ele>723.4</ele><time>2026-04-07T14:30:49.713Z</time></trkpt><trkpt lat="44.8296722" lon="7.2515738"><ele>721.0</ele><time>2026-04-07T14:30:51.713Z</time></trkpt><trkpt lat="44.8296285" lon="7.2516834"><ele>718.8333333333334</ele><time>2026-04-07T14:30:53.713Z</time></trkpt><trkpt lat="44.8295515" lon="7.2517898"><ele>716.6666666666667</ele><time>2026-04-07T14:30:55.713Z</time></trkpt><trkpt lat="44.8294952" lon="7.2518612"><ele>714.5</ele><time>2026-04-07T14:30:56.713Z</time></trkpt><trkpt lat="44.8294373" lon="7.251943"><ele>712.3333333333334</ele><time>2026-04-07T14:30:57.713Z</time></trkpt><trkpt lat="44.8293872" lon="7.2520278"><ele>710.1666666666666</ele><time>2026-04-07T14:30:58.713Z</time></trkpt><trkpt lat="44.8293447" lon="7.2521231"><ele>708.0</ele><time>2026-04-07T14:30:59.713Z</time></trkpt><trkpt lat="44.8292993" lon="7.2522213"><ele>707.6666666666666</ele><time>2026-04-07T14:31:00.713Z</time></trkpt><trkpt lat="44.8292542" lon="7.2522995"><ele>707.3333333333334</ele><time>2026-04-07T14:31:01.713Z</time></trkpt><trkpt lat="44.8291615" lon="7.2523915"><ele>707.0</ele><time>2026-04-07T14:31:03.713Z</time></trkpt><trkpt lat="44.8290654" lon="7.2523633"><ele>706.6666666666667</ele><time>2026-04-07T14:31:05.713Z</time></trkpt><trkpt lat="44.8290205" lon="7.2522942"><ele>706.3333333333334</ele><time>2026-04-07T14:31:06.712Z</time></trkpt><trkpt lat="44.8289824" lon="7.2521974"><ele>706.0</ele><time>2026-04-07T14:31:07.713Z</time></trkpt><trkpt lat="44.8289579" lon="7.2520851"><ele>706.0</ele><time>2026-04-07T14:31:08.713Z</time></trkpt><trkpt lat="44.8289372" lon="7.251958"><ele>706.0</ele><time>2026-04-07T14:31:09.713Z</time></trkpt><trkpt lat="44.8289241" lon="7.2518179"><ele>706.0</ele><time>2026-04-07T14:31:10.713Z</time></trkpt><trkpt lat="44.8289026" lon="7.2516945"><ele>706.0</ele><time>2026-04-07T14:31:11.713Z</time></trkpt><trkpt lat="44.8288715" lon="7.2515793"><ele>706.0</ele><time>2026-04-07T14:31:12.713Z</time></trkpt><trkpt lat="44.82884" lon="7.2514792"><ele>706.0</ele><time>2026-04-07T14:31:13.713Z</time></trkpt><trkpt lat="44.8288099" lon="7.2513924"><ele>705.5</ele><time>2026-04-07T14:31:14.713Z</time></trkpt><trkpt lat="44.8287875" lon="7.2513056"><ele>705.0</ele><time>2026-04-07T14:31:15.713Z</time></trkpt><trkpt lat="44.8287846" lon="7.2511315"><ele>704.5</ele><time>2026-04-07T14:31:17.713Z</time></trkpt><trkpt lat="44.8287959" lon="7.2510295"><ele>704.0</ele><time>2026-04-07T14:31:18.713Z</time></trkpt><trkpt lat="44.8288153" lon="7.2509178"><ele>703.5</ele><time>2026-04-07T14:31:19.713Z</time></trkpt><trkpt lat="44.8288392" lon="7.2508106"><ele>703.0</ele><time>2026-04-07T14:31:20.713Z</time></trkpt><trkpt lat="44.8288624" lon="7.2507133"><ele>703.0</ele><time>2026-04-07T14:31:21.713Z</time></trkpt><trkpt lat="44.8288931" lon="7.2506303"><ele>703.0</ele><time>2026-04-07T14:31:22.713Z</time></trkpt><trkpt lat="44.8289364" lon="7.250563"><ele>703.0</ele><time>2026-04-07T14:31:23.713Z</time></trkpt><trkpt lat="44.828994" lon="7.250512"><ele>703.0</ele><time>2026-04-07T14:31:24.713Z</time></trkpt><trkpt lat="44.8290584" lon="7.2504774"><ele>703.0</ele><time>2026-04-07T14:31:25.713Z</time></trkpt><trkpt lat="44.8291249" lon="7.2504454"><ele>703.0</ele><time>2026-04-07T14:31:26.713Z</time></trkpt><trkpt lat="44.8292234" lon="7.2503594"><ele>700.4</ele><time>2026-04-07T14:31:28.713Z</time></trkpt><trkpt lat="44.8292641" lon="7.25022"><ele>697.8</ele><time>2026-04-07T14:31:30.712Z</time></trkpt><trkpt lat="44.8292318" lon="7.2500423"><ele>695.2</ele><time>2026-04-07T14:31:32.713Z</time></trkpt><trkpt lat="44.8291948" lon="7.2499433"><ele>692.6</ele><time>2026-04-07T14:31:33.713Z</time></trkpt><trkpt lat="44.8291504" lon="7.249862"><ele>690.0</ele><time>2026-04-07T14:31:34.713Z</time></trkpt><trkpt lat="44.8290914" lon="7.2497978"><ele>687.6</ele><time>2026-04-07T14:31:35.713Z</time></trkpt><trkpt lat="44.8290282" lon="7.2497562"><ele>685.2</ele><time>2026-04-07T14:31:36.713Z</time></trkpt><trkpt lat="44.8289619" lon="7.2497296"><ele>682.8</ele><time>2026-04-07T14:31:37.713Z</time></trkpt><trkpt lat="44.8288951" lon="7.2497123"><ele>680.4</ele><time>2026-04-07T14:31:38.713Z</time></trkpt><trkpt lat="44.8287942" lon="7.2496264"><ele>678.0</ele><time>2026-04-07T14:31:40.713Z</time></trkpt><trkpt lat="44.8287434" lon="7.2494594"><ele>678.0</ele><time>2026-04-07T14:31:42.713Z</time></trkpt><trkpt lat="44.8287427" lon="7.2493619"><ele>678.0</ele><time>2026-04-07T14:31:43.713Z</time></trkpt><trkpt lat="44.8287583" lon="7.249264"><ele>678.0</ele><time>2026-04-07T14:31:44.713Z</time></trkpt><trkpt lat="44.8287872" lon="7.2491759"><ele>678.0</ele><time>2026-04-07T14:31:45.713Z</time></trkpt><trkpt lat="44.8288362" lon="7.2491127"><ele>678.0</ele><time>2026-04-07T14:31:46.713Z</time></trkpt><trkpt lat="44.828909" lon="7.2490672"><ele>678.0</ele><time>2026-04-07T14:31:47.713Z</time></trkpt><trkpt lat="44.8289775" lon="7.249018"><ele>678.0</ele><time>2026-04-07T14:31:48.713Z</time></trkpt><trkpt lat="44.8290401" lon="7.2489516"><ele>676.5</ele><time>2026-04-07T14:31:49.713Z</time></trkpt><trkpt lat="44.8290877" lon="7.2488699"><ele>675.0</ele><time>2026-04-07T14:31:50.713Z</time></trkpt><trkpt lat="44.8291209" lon="7.2487797"><ele>673.5</ele><time>2026-04-07T14:31:51.713Z</time></trkpt><trkpt lat="44.8291556" lon="7.2486971"><ele>672.0</ele><time>2026-04-07T14:31:52.713Z</time></trkpt><trkpt lat="44.8292199" lon="7.2486049"><ele>670.5</ele><time>2026-04-07T14:31:54.713Z</time></trkpt><trkpt lat="44.8293012" lon="7.2485895"><ele>669.0</ele><time>2026-04-07T14:31:56.713Z</time></trkpt><trkpt lat="44.8293721" lon="7.2485619"><ele>668.6666666666666</ele><time>2026-04-07T14:31:58.713Z</time></trkpt><trkpt lat="44.8294079" lon="7.2484858"><ele>668.3333333333334</ele><time>2026-04-07T14:32:00.713Z</time></trkpt><trkpt lat="44.8294131" lon="7.2483792"><ele>668.0</ele><time>2026-04-07T14:32:03.713Z</time></trkpt><trkpt lat="44.8293974" lon="7.2482927"><ele>667.6666666666667</ele><time>2026-04-07T14:32:07.713Z</time></trkpt><trkpt lat="44.8293453" lon="7.2481914"><ele>667.3333333333334</ele><time>2026-04-07T14:32:11.713Z</time></trkpt><trkpt lat="44.8292949" lon="7.2481243"><ele>667.0</ele><time>2026-04-07T14:32:13.713Z</time></trkpt><trkpt lat="44.8292386" lon="7.2480236"><ele>667.0</ele><time>2026-04-07T14:32:15.713Z</time></trkpt><trkpt lat="44.8291691" lon="7.2479158"><ele>667.0</ele><time>2026-04-07T14:32:17.713Z</time></trkpt><trkpt lat="44.8291248" lon="7.2478163"><ele>667.0</ele><time>2026-04-07T14:32:19.713Z</time></trkpt><trkpt lat="44.8290973" lon="7.2476563"><ele>667.0</ele><time>2026-04-07T14:32:21.713Z</time></trkpt><trkpt lat="44.8290909" lon="7.2475546"><ele>667.0</ele><time>2026-04-07T14:32:22.712Z</time></trkpt><trkpt lat="44.8290826" lon="7.2474371"><ele>667.0</ele><time>2026-04-07T14:32:23.713Z</time></trkpt><trkpt lat="44.8290765" lon="7.2473229"><ele>667.0</ele><time>2026-04-07T14:32:24.712Z</time></trkpt><trkpt lat="44.8290731" lon="7.2472111"><ele>667.0</ele><time>2026-04-07T14:32:25.713Z</time></trkpt><trkpt lat="44.8290726" lon="7.2470955"><ele>667.0</ele><time>2026-04-07T14:32:26.713Z</time></trkpt><trkpt lat="44.8290769" lon="7.2469837"><ele>667.0</ele><time>2026-04-07T14:32:27.713Z</time></trkpt><trkpt lat="44.8290899" lon="7.2468718"><ele>667.0</ele><time>2026-04-07T14:32:28.713Z</time></trkpt><trkpt lat="44.8291001" lon="7.246757"><ele>666.0</ele><time>2026-04-07T14:32:29.713Z</time></trkpt><trkpt lat="44.8291065" lon="7.2466439"><ele>665.0</ele><time>2026-04-07T14:32:30.713Z</time></trkpt><trkpt lat="44.8291131" lon="7.2465187"><ele>664.0</ele><time>2026-04-07T14:32:31.713Z</time></trkpt><trkpt lat="44.8291211" lon="7.246376"><ele>663.0</ele><time>2026-04-07T14:32:32.713Z</time></trkpt><trkpt lat="44.8291253" lon="7.246225"><ele>662.0</ele><time>2026-04-07T14:32:33.713Z</time></trkpt><trkpt lat="44.8291297" lon="7.2460737"><ele>661.3333333333333</ele><time>2026-04-07T14:32:34.713Z</time></trkpt><trkpt lat="44.8291243" lon="7.2459333"><ele>660.6666666666666</ele><time>2026-04-07T14:32:35.713Z</time></trkpt><trkpt lat="44.8291083" lon="7.2458068"><ele>660.0</ele><time>2026-04-07T14:32:36.713Z</time></trkpt><trkpt lat="44.8290932" lon="7.2457019"><ele>659.3333333333334</ele><time>2026-04-07T14:32:37.713Z</time></trkpt><trkpt lat="44.8290818" lon="7.2455978"><ele>658.6666666666667</ele><time>2026-04-07T14:32:38.713Z</time></trkpt><trkpt lat="44.8290782" lon="7.2455017"><ele>658.0</ele><time>2026-04-07T14:32:39.713Z</time></trkpt><trkpt lat="44.8290807" lon="7.2454012"><ele>656.6666666666667</ele><time>2026-04-07T14:32:40.713Z</time></trkpt><trkpt lat="44.8290948" lon="7.2453042"><ele>655.3333333333334</ele><time>2026-04-07T14:32:41.713Z</time></trkpt><trkpt lat="44.8291301" lon="7.2452114"><ele>654.0</ele><time>2026-04-07T14:32:42.713Z</time></trkpt><trkpt lat="44.8291722" lon="7.2451185"><ele>652.6666666666666</ele><time>2026-04-07T14:32:43.713Z</time></trkpt><trkpt lat="44.8292263" lon="7.2450281"><ele>651.3333333333333</ele><time>2026-04-07T14:32:44.713Z</time></trkpt><trkpt lat="44.8292872" lon="7.2449478"><ele>650.0</ele><time>2026-04-07T14:32:45.713Z</time></trkpt><trkpt lat="44.8293529" lon="7.2448731"><ele>650.0</ele><time>2026-04-07T14:32:46.713Z</time></trkpt><trkpt lat="44.8294332" lon="7.2448139"><ele>650.0</ele><time>2026-04-07T14:32:47.713Z</time></trkpt><trkpt lat="44.8295254" lon="7.2447702"><ele>650.0</ele><time>2026-04-07T14:32:48.713Z</time></trkpt><trkpt lat="44.8296327" lon="7.2447315"><ele>650.0</ele><time>2026-04-07T14:32:49.713Z</time></trkpt><trkpt lat="44.8297388" lon="7.2446951"><ele>650.0</ele><time>2026-04-07T14:32:50.713Z</time></trkpt><trkpt lat="44.8298381" lon="7.2446679"><ele>648.3333333333333</ele><time>2026-04-07T14:32:51.713Z</time></trkpt><trkpt lat="44.8299296" lon="7.2446428"><ele>646.6666666666666</ele><time>2026-04-07T14:32:52.713Z</time></trkpt><trkpt lat="44.83001" lon="7.2446243"><ele>645.0</ele><time>2026-04-07T14:32:53.712Z</time></trkpt><trkpt lat="44.8300837" lon="7.2446083"><ele>643.3333333333334</ele><time>2026-04-07T14:32:54.713Z</time></trkpt><trkpt lat="44.8301591" lon="7.2446016"><ele>641.6666666666667</ele><time>2026-04-07T14:32:55.713Z</time></trkpt><trkpt lat="44.8302287" lon="7.2445961"><ele>640.0</ele><time>2026-04-07T14:32:56.713Z</time></trkpt><trkpt lat="44.8302913" lon="7.2445761"><ele>640.0</ele><time>2026-04-07T14:32:57.713Z</time></trkpt><trkpt lat="44.8303458" lon="7.2444769"><ele>640.0</ele><time>2026-04-07T14:32:59.713Z</time></trkpt><trkpt lat="44.8303266" lon="7.2443895"><ele>640.0</ele><time>2026-04-07T14:33:00.713Z</time></trkpt><trkpt lat="44.8302955" lon="7.2442935"><ele>640.0</ele><time>2026-04-07T14:33:01.713Z</time></trkpt><trkpt lat="44.8302454" lon="7.2442017"><ele>640.0</ele><time>2026-04-07T14:33:02.713Z</time></trkpt><trkpt lat="44.8301809" lon="7.2441027"><ele>640.0</ele><time>2026-04-07T14:33:03.713Z</time></trkpt><trkpt lat="44.8301287" lon="7.2440143"><ele>639.1666666666667</ele><time>2026-04-07T14:33:04.713Z</time></trkpt><trkpt lat="44.830087" lon="7.2439303"><ele>638.3333333333334</ele><time>2026-04-07T14:33:05.713Z</time></trkpt><trkpt lat="44.8300426" lon="7.2438389"><ele>637.5</ele><time>2026-04-07T14:33:06.713Z</time></trkpt><trkpt lat="44.8300044" lon="7.2437363"><ele>636.6666666666666</ele><time>2026-04-07T14:33:07.713Z</time></trkpt><trkpt lat="44.8299775" lon="7.243615"><ele>635.8333333333333</ele><time>2026-04-07T14:33:08.713Z</time></trkpt><trkpt lat="44.8299592" lon="7.2434883"><ele>635.0</ele><time>2026-04-07T14:33:09.713Z</time></trkpt><trkpt lat="44.8299429" lon="7.2433717"><ele>635.0</ele><time>2026-04-07T14:33:10.713Z</time></trkpt><trkpt lat="44.829936" lon="7.2432706"><ele>635.0</ele><time>2026-04-07T14:33:11.713Z</time></trkpt><trkpt lat="44.8299535" lon="7.2431799"><ele>635.0</ele><time>2026-04-07T14:33:12.713Z</time></trkpt><trkpt lat="44.8300156" lon="7.2430438"><ele>635.0</ele><time>2026-04-07T14:33:14.713Z</time></trkpt><trkpt lat="44.8300759" lon="7.2429914"><ele>635.0</ele><time>2026-04-07T14:33:15.713Z</time></trkpt><trkpt lat="44.8301544" lon="7.2429416"><ele>635.0</ele><time>2026-04-07T14:33:16.713Z</time></trkpt><trkpt lat="44.830244" lon="7.2428813"><ele>639.6</ele><time>2026-04-07T14:33:17.713Z</time></trkpt><trkpt lat="44.8303156" lon="7.2428101"><ele>644.2</ele><time>2026-04-07T14:33:18.713Z</time></trkpt><trkpt lat="44.8303768" lon="7.2427298"><ele>648.8</ele><time>2026-04-07T14:33:19.713Z</time></trkpt><trkpt lat="44.8304245" lon="7.242648"><ele>653.4</ele><time>2026-04-07T14:33:20.712Z</time></trkpt><trkpt lat="44.8304789" lon="7.2425043"><ele>658.0</ele><time>2026-04-07T14:33:22.713Z</time></trkpt><trkpt lat="44.8304685" lon="7.2423595"><ele>657.4</ele><time>2026-04-07T14:33:24.712Z</time></trkpt><trkpt lat="44.8304264" lon="7.2422895"><ele>656.8</ele><time>2026-04-07T14:33:25.713Z</time></trkpt><trkpt lat="44.8303568" lon="7.2422312"><ele>656.2</ele><time>2026-04-07T14:33:26.713Z</time></trkpt><trkpt lat="44.8302497" lon="7.2422187"><ele>655.6</ele><time>2026-04-07T14:33:27.713Z</time></trkpt><trkpt lat="44.8301423" lon="7.2422194"><ele>655.0</ele><time>2026-04-07T14:33:28.713Z</time></trkpt><trkpt lat="44.8300424" lon="7.2422187"><ele>650.2</ele><time>2026-04-07T14:33:29.713Z</time></trkpt><trkpt lat="44.8299473" lon="7.2422117"><ele>645.4</ele><time>2026-04-07T14:33:30.713Z</time></trkpt><trkpt lat="44.8298465" lon="7.2421949"><ele>640.6</ele><time>2026-04-07T14:33:31.713Z</time></trkpt><trkpt lat="44.829745" lon="7.2421642"><ele>635.8</ele><time>2026-04-07T14:33:32.712Z</time></trkpt><trkpt lat="44.8296533" lon="7.2421288"><ele>631.0</ele><time>2026-04-07T14:33:33.713Z</time></trkpt><trkpt lat="44.8295829" lon="7.24208"><ele>631.0</ele><time>2026-04-07T14:33:34.713Z</time></trkpt><trkpt lat="44.8295405" lon="7.2419456"><ele>631.0</ele><time>2026-04-07T14:33:36.713Z</time></trkpt><trkpt lat="44.8295495" lon="7.2418427"><ele>631.0</ele><time>2026-04-07T14:33:37.713Z</time></trkpt><trkpt lat="44.8295681" lon="7.2417285"><ele>631.0</ele><time>2026-04-07T14:33:38.713Z</time></trkpt><trkpt lat="44.8295867" lon="7.2416117"><ele>631.0</ele><time>2026-04-07T14:33:39.713Z</time></trkpt><trkpt lat="44.829602" lon="7.2414944"><ele>631.0</ele><time>2026-04-07T14:33:40.713Z</time></trkpt><trkpt lat="44.8296236" lon="7.2413865"><ele>630.3333333333334</ele><time>2026-04-07T14:33:41.712Z</time></trkpt><trkpt lat="44.8296549" lon="7.2412893"><ele>629.6666666666667</ele><time>2026-04-07T14:33:42.713Z</time></trkpt><trkpt lat="44.8296984" lon="7.2411998"><ele>629.0</ele><time>2026-04-07T14:33:43.713Z</time></trkpt><trkpt lat="44.8297425" lon="7.2411199"><ele>628.3333333333334</ele><time>2026-04-07T14:33:44.713Z</time></trkpt><trkpt lat="44.8297854" lon="7.2410318"><ele>627.6666666666666</ele><time>2026-04-07T14:33:45.713Z</time></trkpt><trkpt lat="44.8298085" lon="7.2409425"><ele>627.0</ele><time>2026-04-07T14:33:46.713Z</time></trkpt><trkpt lat="44.82978" lon="7.240811"><ele>627.0</ele><time>2026-04-07T14:33:48.712Z</time></trkpt><trkpt lat="44.8296445" lon="7.2407484"><ele>627.0</ele><time>2026-04-07T14:33:50.713Z</time></trkpt><trkpt lat="44.8295429" lon="7.2407257"><ele>627.0</ele><time>2026-04-07T14:33:51.713Z</time></trkpt><trkpt lat="44.8294256" lon="7.240708"><ele>627.0</ele><time>2026-04-07T14:33:52.713Z</time></trkpt><trkpt lat="44.8293046" lon="7.2406907"><ele>622.0</ele><time>2026-04-07T14:33:53.713Z</time></trkpt><trkpt lat="44.8291805" lon="7.2406808"><ele>617.0</ele><time>2026-04-07T14:33:54.713Z</time></trkpt><trkpt lat="44.8290594" lon="7.2406777"><ele>612.0</ele><time>2026-04-07T14:33:55.712Z</time></trkpt><trkpt lat="44.8289468" lon="7.2406787"><ele>607.0</ele><time>2026-04-07T14:33:56.712Z</time></trkpt><trkpt lat="44.828848" lon="7.2406802"><ele>607.0</ele><time>2026-04-07T14:33:57.713Z</time></trkpt><trkpt lat="44.8287573" lon="7.2406848"><ele>607.0</ele><time>2026-04-07T14:33:58.713Z</time></trkpt><trkpt lat="44.8286778" lon="7.2406809"><ele>607.0</ele><time>2026-04-07T14:33:59.713Z</time></trkpt><trkpt lat="44.8286071" lon="7.2406859"><ele>607.0</ele><time>2026-04-07T14:34:00.713Z</time></trkpt><trkpt lat="44.8285435" lon="7.2406864"><ele>607.0</ele><time>2026-04-07T14:34:01.713Z</time></trkpt><trkpt lat="44.8284743" lon="7.240687"><ele>607.0</ele><time>2026-04-07T14:34:02.713Z</time></trkpt><trkpt lat="44.8283951" lon="7.2406901"><ele>605.0</ele><time>2026-04-07T14:34:03.713Z</time></trkpt><trkpt lat="44.8283105" lon="7.2407028"><ele>603.0</ele><time>2026-04-07T14:34:04.713Z</time></trkpt><trkpt lat="44.8282172" lon="7.2407349"><ele>601.0</ele><time>2026-04-07T14:34:05.713Z</time></trkpt><trkpt lat="44.8281231" lon="7.2407905"><ele>599.0</ele><time>2026-04-07T14:34:06.713Z</time></trkpt><trkpt lat="44.8280354" lon="7.2408611"><ele>597.0</ele><time>2026-04-07T14:34:07.713Z</time></trkpt><trkpt lat="44.827957" lon="7.2409394"><ele>597.0</ele><time>2026-04-07T14:34:08.712Z</time></trkpt><trkpt lat="44.8278761" lon="7.2410293"><ele>597.0</ele><time>2026-04-07T14:34:09.713Z</time></trkpt><trkpt lat="44.827792" lon="7.2411156"><ele>597.0</ele><time>2026-04-07T14:34:10.713Z</time></trkpt><trkpt lat="44.8277113" lon="7.2412035"><ele>597.0</ele><time>2026-04-07T14:34:11.713Z</time></trkpt><trkpt lat="44.8276331" lon="7.2412858"><ele>597.0</ele><time>2026-04-07T14:34:12.713Z</time></trkpt><trkpt lat="44.8275596" lon="7.2413682"><ele>595.1666666666666</ele><time>2026-04-07T14:34:13.713Z</time></trkpt><trkpt lat="44.8274831" lon="7.241447"><ele>593.3333333333334</ele><time>2026-04-07T14:34:14.713Z</time></trkpt><trkpt lat="44.8274054" lon="7.2415096"><ele>591.5</ele><time>2026-04-07T14:34:15.712Z</time></trkpt><trkpt lat="44.8273246" lon="7.2415532"><ele>589.6666666666667</ele><time>2026-04-07T14:34:16.713Z</time></trkpt><trkpt lat="44.8272479" lon="7.2415893"><ele>587.8333333333334</ele><time>2026-04-07T14:34:17.713Z</time></trkpt><trkpt lat="44.827174" lon="7.241615"><ele>586.0</ele><time>2026-04-07T14:34:18.713Z</time></trkpt><trkpt lat="44.8271087" lon="7.2416363"><ele>584.6666666666667</ele><time>2026-04-07T14:34:19.713Z</time></trkpt><trkpt lat="44.8270447" lon="7.2416558"><ele>583.3333333333334</ele><time>2026-04-07T14:34:20.713Z</time></trkpt><trkpt lat="44.8269811" lon="7.2416754"><ele>582.0</ele><time>2026-04-07T14:34:21.712Z</time></trkpt><trkpt lat="44.8268722" lon="7.2416893"><ele>580.6666666666666</ele><time>2026-04-07T14:34:23.712Z</time></trkpt><trkpt lat="44.8267774" lon="7.2416753"><ele>579.3333333333333</ele><time>2026-04-07T14:34:25.713Z</time></trkpt><trkpt lat="44.8266673" lon="7.2416363"><ele>578.0</ele><time>2026-04-07T14:34:27.713Z</time></trkpt><trkpt lat="44.8266033" lon="7.2416037"><ele>577.6</ele><time>2026-04-07T14:34:28.713Z</time></trkpt><trkpt lat="44.8265311" lon="7.2415544"><ele>577.1999999999999</ele><time>2026-04-07T14:34:29.713Z</time></trkpt><trkpt lat="44.8264538" lon="7.2414822"><ele>576.8</ele><time>2026-04-07T14:34:30.713Z</time></trkpt><trkpt lat="44.8263804" lon="7.2413925"><ele>576.4</ele><time>2026-04-07T14:34:31.713Z</time></trkpt><trkpt lat="44.8263267" lon="7.2412843"><ele>576.0</ele><time>2026-04-07T14:34:32.713Z</time></trkpt><trkpt lat="44.8262891" lon="7.2411603"><ele>576.0</ele><time>2026-04-07T14:34:33.713Z</time></trkpt><trkpt lat="44.8262602" lon="7.2410324"><ele>576.0</ele><time>2026-04-07T14:34:34.713Z</time></trkpt><trkpt lat="44.8262497" lon="7.2408974"><ele>576.0</ele><time>2026-04-07T14:34:35.712Z</time></trkpt><trkpt lat="44.8262628" lon="7.240753"><ele>576.0</ele><time>2026-04-07T14:34:36.713Z</time></trkpt><trkpt lat="44.8262833" lon="7.2406101"><ele>576.0</ele><time>2026-04-07T14:34:37.713Z</time></trkpt><trkpt lat="44.8263033" lon="7.2404729"><ele>575.8333333333334</ele><time>2026-04-07T14:34:38.713Z</time></trkpt><trkpt lat="44.8263244" lon="7.2403445"><ele>575.6666666666666</ele><time>2026-04-07T14:34:39.713Z</time></trkpt><trkpt lat="44.8263477" lon="7.2402288"><ele>575.5</ele><time>2026-04-07T14:34:40.713Z</time></trkpt><trkpt lat="44.8263706" lon="7.2401148"><ele>575.3333333333333</ele><time>2026-04-07T14:34:41.713Z</time></trkpt><trkpt lat="44.8264036" lon="7.240013"><ele>575.1666666666666</ele><time>2026-04-07T14:34:42.712Z</time></trkpt><trkpt lat="44.8264351" lon="7.2399235"><ele>575.0</ele><time>2026-04-07T14:34:43.713Z</time></trkpt><trkpt lat="44.8264552" lon="7.2397612"><ele>575.0</ele><time>2026-04-07T14:34:45.713Z</time></trkpt><trkpt lat="44.8263813" lon="7.2396237"><ele>575.0</ele><time>2026-04-07T14:34:47.713Z</time></trkpt><trkpt lat="44.8263117" lon="7.239582"><ele>575.0</ele><time>2026-04-07T14:34:48.713Z</time></trkpt><trkpt lat="44.826225" lon="7.2395432"><ele>575.0</ele><time>2026-04-07T14:34:49.713Z</time></trkpt><trkpt lat="44.8261316" lon="7.2395008"><ele>575.0</ele><time>2026-04-07T14:34:50.713Z</time></trkpt><trkpt lat="44.8260282" lon="7.2394489"><ele>572.75</ele><time>2026-04-07T14:34:51.713Z</time></trkpt><trkpt lat="44.8259218" lon="7.2394001"><ele>570.5</ele><time>2026-04-07T14:34:52.713Z</time></trkpt><trkpt lat="44.8258119" lon="7.2393526"><ele>568.25</ele><time>2026-04-07T14:34:53.713Z</time></trkpt><trkpt lat="44.8256995" lon="7.2393066"><ele>566.0</ele><time>2026-04-07T14:34:54.713Z</time></trkpt><trkpt lat="44.8255838" lon="7.2392537"><ele>566.0</ele><time>2026-04-07T14:34:55.712Z</time></trkpt><trkpt lat="44.8254653" lon="7.2391996"><ele>566.0</ele><time>2026-04-07T14:34:56.713Z</time></trkpt><trkpt lat="44.8253471" lon="7.2391449"><ele>566.0</ele><time>2026-04-07T14:34:57.713Z</time></trkpt><trkpt lat="44.8252306" lon="7.2390916"><ele>566.0</ele><time>2026-04-07T14:34:58.713Z</time></trkpt><trkpt lat="44.8251207" lon="7.2390448"><ele>564.0</ele><time>2026-04-07T14:34:59.713Z</time></trkpt><trkpt lat="44.8250185" lon="7.2389927"><ele>562.0</ele><time>2026-04-07T14:35:00.713Z</time></trkpt><trkpt lat="44.8249209" lon="7.2389408"><ele>560.0</ele><time>2026-04-07T14:35:01.713Z</time></trkpt><trkpt lat="44.8248269" lon="7.2388892"><ele>558.0</ele><time>2026-04-07T14:35:02.713Z</time></trkpt><trkpt lat="44.8247236" lon="7.2388424"><ele>556.0</ele><time>2026-04-07T14:35:03.713Z</time></trkpt><trkpt lat="44.8246147" lon="7.2387971"><ele>555.0</ele><time>2026-04-07T14:35:04.713Z</time></trkpt><trkpt lat="44.8245035" lon="7.2387518"><ele>554.0</ele><time>2026-04-07T14:35:05.713Z</time></trkpt><trkpt lat="44.8243974" lon="7.2387271"><ele>553.0</ele><time>2026-04-07T14:35:06.713Z</time></trkpt><trkpt lat="44.8242868" lon="7.2387291"><ele>552.0</ele><time>2026-04-07T14:35:07.713Z</time></trkpt><trkpt lat="44.8241728" lon="7.2387664"><ele>551.25</ele><time>2026-04-07T14:35:08.713Z</time></trkpt><trkpt lat="44.8240607" lon="7.2388254"><ele>550.5</ele><time>2026-04-07T14:35:09.713Z</time></trkpt><trkpt lat="44.8239535" lon="7.2388994"><ele>549.75</ele><time>2026-04-07T14:35:10.713Z</time></trkpt><trkpt lat="44.8238502" lon="7.2389772"><ele>549.0</ele><time>2026-04-07T14:35:11.713Z</time></trkpt><trkpt lat="44.8237512" lon="7.2390554"><ele>549.0</ele><time>2026-04-07T14:35:12.713Z</time></trkpt><trkpt lat="44.8236567" lon="7.2391265"><ele>549.0</ele><time>2026-04-07T14:35:13.713Z</time></trkpt><trkpt lat="44.8235573" lon="7.2391973"><ele>549.0</ele><time>2026-04-07T14:35:14.712Z</time></trkpt><trkpt lat="44.8234612" lon="7.2392534"><ele>549.0</ele><time>2026-04-07T14:35:15.713Z</time></trkpt><trkpt lat="44.823362" lon="7.2393061"><ele>549.0</ele><time>2026-04-07T14:35:16.713Z</time></trkpt><trkpt lat="44.8232601" lon="7.2393499"><ele>547.4</ele><time>2026-04-07T14:35:17.713Z</time></trkpt><trkpt lat="44.8231615" lon="7.2393884"><ele>545.8</ele><time>2026-04-07T14:35:18.713Z</time></trkpt><trkpt lat="44.8230599" lon="7.2394204"><ele>544.2</ele><time>2026-04-07T14:35:19.713Z</time></trkpt><trkpt lat="44.8229574" lon="7.2394506"><ele>542.6</ele><time>2026-04-07T14:35:20.713Z</time></trkpt><trkpt lat="44.8228563" lon="7.239492"><ele>541.0</ele><time>2026-04-07T14:35:21.713Z</time></trkpt><trkpt lat="44.8227629" lon="7.2395468"><ele>541.0</ele><time>2026-04-07T14:35:22.713Z</time></trkpt><trkpt lat="44.8226761" lon="7.2396282"><ele>541.0</ele><time>2026-04-07T14:35:23.713Z</time></trkpt><trkpt lat="44.8226111" lon="7.2397443"><ele>541.0</ele><time>2026-04-07T14:35:24.713Z</time></trkpt><trkpt lat="44.822573" lon="7.2398828"><ele>541.0</ele><time>2026-04-07T14:35:25.713Z</time></trkpt><trkpt lat="44.8225585" lon="7.2400355"><ele>541.0</ele><time>2026-04-07T14:35:26.713Z</time></trkpt><trkpt lat="44.8225652" lon="7.2401939"><ele>540.8</ele><time>2026-04-07T14:35:27.713Z</time></trkpt><trkpt lat="44.8225802" lon="7.2403469"><ele>540.6</ele><time>2026-04-07T14:35:28.713Z</time></trkpt><trkpt lat="44.8225974" lon="7.2404979"><ele>540.4</ele><time>2026-04-07T14:35:29.713Z</time></trkpt><trkpt lat="44.8226216" lon="7.2406443"><ele>540.2</ele><time>2026-04-07T14:35:30.713Z</time></trkpt><trkpt lat="44.8226481" lon="7.2407847"><ele>540.0</ele><time>2026-04-07T14:35:31.713Z</time></trkpt><trkpt lat="44.8226761" lon="7.2409351"><ele>540.0</ele><time>2026-04-07T14:35:32.712Z</time></trkpt><trkpt lat="44.8227065" lon="7.2410884"><ele>540.0</ele><time>2026-04-07T14:35:33.713Z</time></trkpt><trkpt lat="44.8227517" lon="7.2412183"><ele>540.0</ele><time>2026-04-07T14:35:34.713Z</time></trkpt><trkpt lat="44.8228116" lon="7.241355"><ele>540.0</ele><time>2026-04-07T14:35:35.713Z</time></trkpt><trkpt lat="44.8228801" lon="7.2414963"><ele>538.5</ele><time>2026-04-07T14:35:36.713Z</time></trkpt><trkpt lat="44.8229416" lon="7.2416386"><ele>537.0</ele><time>2026-04-07T14:35:37.713Z</time></trkpt><trkpt lat="44.8230084" lon="7.2417775"><ele>535.5</ele><time>2026-04-07T14:35:38.713Z</time></trkpt><trkpt lat="44.8230732" lon="7.2419084"><ele>534.0</ele><time>2026-04-07T14:35:39.713Z</time></trkpt><trkpt lat="44.8231309" lon="7.242041"><ele>534.0</ele><time>2026-04-07T14:35:40.712Z</time></trkpt><trkpt lat="44.8231778" lon="7.2421782"><ele>534.0</ele><time>2026-04-07T14:35:41.713Z</time></trkpt><trkpt lat="44.8232166" lon="7.2423213"><ele>534.0</ele><time>2026-04-07T14:35:42.713Z</time></trkpt><trkpt lat="44.8232515" lon="7.2424732"><ele>534.0</ele><time>2026-04-07T14:35:43.713Z</time></trkpt><trkpt lat="44.8232856" lon="7.2426205"><ele>534.0</ele><time>2026-04-07T14:35:44.713Z</time></trkpt><trkpt lat="44.8233159" lon="7.2427616"><ele>532.6</ele><time>2026-04-07T14:35:45.713Z</time></trkpt><trkpt lat="44.8233421" lon="7.242899"><ele>531.2</ele><time>2026-04-07T14:35:46.713Z</time></trkpt><trkpt lat="44.8233769" lon="7.2430292"><ele>529.8000000000001</ele><time>2026-04-07T14:35:47.713Z</time></trkpt><trkpt lat="44.823405" lon="7.243157"><ele>528.4</ele><time>2026-04-07T14:35:48.713Z</time></trkpt><trkpt lat="44.8234169" lon="7.2432908"><ele>527.0</ele><time>2026-04-07T14:35:49.713Z</time></trkpt><trkpt lat="44.8234034" lon="7.2434208"><ele>525.8000000000001</ele><time>2026-04-07T14:35:50.713Z</time></trkpt><trkpt lat="44.8233674" lon="7.2435403"><ele>524.6</ele><time>2026-04-07T14:35:51.712Z</time></trkpt><trkpt lat="44.8233135" lon="7.2436513"><ele>523.4000000000001</ele><time>2026-04-07T14:35:52.713Z</time></trkpt><trkpt lat="44.8232327" lon="7.2437422"><ele>522.2</ele><time>2026-04-07T14:35:53.713Z</time></trkpt><trkpt lat="44.8231333" lon="7.243798"><ele>521.0</ele><time>2026-04-07T14:35:54.713Z</time></trkpt><trkpt lat="44.8230305" lon="7.2438383"><ele>521.0</ele><time>2026-04-07T14:35:55.713Z</time></trkpt><trkpt lat="44.8229254" lon="7.2438738"><ele>521.0</ele><time>2026-04-07T14:35:56.713Z</time></trkpt><trkpt lat="44.8228253" lon="7.2439122"><ele>521.0</ele><time>2026-04-07T14:35:57.713Z</time></trkpt><trkpt lat="44.8227348" lon="7.243952"><ele>521.0</ele><time>2026-04-07T14:35:58.713Z</time></trkpt><trkpt lat="44.8226501" lon="7.2439872"><ele>521.0</ele><time>2026-04-07T14:35:59.713Z</time></trkpt><trkpt lat="44.8225713" lon="7.2440174"><ele>519.5</ele><time>2026-04-07T14:36:00.713Z</time></trkpt><trkpt lat="44.8225069" lon="7.2440449"><ele>518.0</ele><time>2026-04-07T14:36:01.713Z</time></trkpt><trkpt lat="44.8224242" lon="7.2440875"><ele>516.5</ele><time>2026-04-07T14:36:03.713Z</time></trkpt><trkpt lat="44.8223872" lon="7.2442162"><ele>515.0</ele><time>2026-04-07T14:36:06.713Z</time></trkpt><trkpt lat="44.8224082" lon="7.2443043"><ele>513.5</ele><time>2026-04-07T14:36:07.713Z</time></trkpt><trkpt lat="44.8224343" lon="7.2444055"><ele>512.0</ele><time>2026-04-07T14:36:08.713Z</time></trkpt><trkpt lat="44.8224568" lon="7.2445192"><ele>512.0</ele><time>2026-04-07T14:36:09.713Z</time></trkpt><trkpt lat="44.8224633" lon="7.2446331"><ele>512.0</ele><time>2026-04-07T14:36:10.713Z</time></trkpt><trkpt lat="44.8224524" lon="7.2447357"><ele>512.0</ele><time>2026-04-07T14:36:11.712Z</time></trkpt></trkseg></trk></gpx>